<?xml version="1.0" encoding="UTF-8" standalone="no" ?>
<gpx xmlns="http://www.topografix.com/GPX/1/1" xmlns:xsi="http://www.w3.org/2001/XMLSchema-instance" xsi:schemaLocation="http://www.topografix.com/GPX/1/1 http://www.topografix.com/GPX/1/1/gpx.xsd" version="1.1" creator="VisuGPX - https://www.visugpx.com">
  <metadata>
    <name>Sainte-Mesme</name>
    <desc><![CDATA[Rando du 08 Mars 2014.
Lieu : Boucle autour de Ste Mesme (78)
]]></desc>
  </metadata>
  <trk>
    <name><![CDATA[8 mars 2015 10:48:49]]></name>
    <cmt><![CDATA[8 mars 2015 10:48:49]]></cmt>
    <trkseg>
      <trkpt lat="48.5296" lon="1.96203">
        <ele>107</ele>
        <time>2015-03-08T09:48:50Z</time>
      </trkpt>
      <trkpt lat="48.52921" lon="1.96193">
        <ele>107</ele>
        <time>2015-03-08T09:49:24Z</time>
      </trkpt>
      <trkpt lat="48.52916" lon="1.96195">
        <ele>107</ele>
        <time>2015-03-08T09:49:29Z</time>
      </trkpt>
      <trkpt lat="48.52891" lon="1.96194">
        <ele>107</ele>
        <time>2015-03-08T09:49:52Z</time>
      </trkpt>
      <trkpt lat="48.52882" lon="1.96188">
        <ele>107</ele>
        <time>2015-03-08T09:50:02Z</time>
      </trkpt>
      <trkpt lat="48.52868" lon="1.96184">
        <ele>106</ele>
        <time>2015-03-08T09:50:10Z</time>
      </trkpt>
      <trkpt lat="48.52863" lon="1.96185">
        <ele>106</ele>
        <time>2015-03-08T09:50:13Z</time>
      </trkpt>
      <trkpt lat="48.5286" lon="1.9619">
        <ele>106</ele>
        <time>2015-03-08T09:50:21Z</time>
      </trkpt>
      <trkpt lat="48.52844" lon="1.96196">
        <ele>106</ele>
        <time>2015-03-08T09:50:38Z</time>
      </trkpt>
      <trkpt lat="48.52823" lon="1.96192">
        <ele>107</ele>
        <time>2015-03-08T09:50:46Z</time>
      </trkpt>
      <trkpt lat="48.52818" lon="1.96181">
        <ele>107</ele>
        <time>2015-03-08T09:50:57Z</time>
      </trkpt>
      <trkpt lat="48.52809" lon="1.96177">
        <ele>108</ele>
        <time>2015-03-08T09:51:05Z</time>
      </trkpt>
      <trkpt lat="48.52801" lon="1.96168">
        <ele>109</ele>
        <time>2015-03-08T09:51:17Z</time>
      </trkpt>
      <trkpt lat="48.52782" lon="1.9616">
        <ele>110</ele>
        <time>2015-03-08T09:51:27Z</time>
      </trkpt>
      <trkpt lat="48.52771" lon="1.96141">
        <ele>111</ele>
        <time>2015-03-08T09:51:32Z</time>
      </trkpt>
      <trkpt lat="48.52769" lon="1.96159">
        <ele>112</ele>
        <time>2015-03-08T09:51:39Z</time>
      </trkpt>
      <trkpt lat="48.52761" lon="1.96166">
        <ele>112</ele>
        <time>2015-03-08T09:51:47Z</time>
      </trkpt>
      <trkpt lat="48.52752" lon="1.96157">
        <ele>113</ele>
        <time>2015-03-08T09:51:52Z</time>
      </trkpt>
      <trkpt lat="48.52742" lon="1.96146">
        <ele>114</ele>
        <time>2015-03-08T09:51:59Z</time>
      </trkpt>
      <trkpt lat="48.52734" lon="1.96155">
        <ele>114</ele>
        <time>2015-03-08T09:52:04Z</time>
      </trkpt>
      <trkpt lat="48.52725" lon="1.9616">
        <ele>115</ele>
        <time>2015-03-08T09:52:10Z</time>
      </trkpt>
      <trkpt lat="48.52716" lon="1.96156">
        <ele>116</ele>
        <time>2015-03-08T09:52:22Z</time>
      </trkpt>
      <trkpt lat="48.5271" lon="1.96144">
        <ele>116</ele>
        <time>2015-03-08T09:52:31Z</time>
      </trkpt>
      <trkpt lat="48.52698" lon="1.96133">
        <ele>115</ele>
        <time>2015-03-08T09:52:57Z</time>
      </trkpt>
      <trkpt lat="48.52692" lon="1.96119">
        <ele>114</ele>
        <time>2015-03-08T09:53:08Z</time>
      </trkpt>
      <trkpt lat="48.52659" lon="1.96067">
        <ele>113</ele>
        <time>2015-03-08T09:53:44Z</time>
      </trkpt>
      <trkpt lat="48.5265" lon="1.96042">
        <ele>112</ele>
        <time>2015-03-08T09:53:59Z</time>
      </trkpt>
      <trkpt lat="48.52652" lon="1.96029">
        <ele>112</ele>
        <time>2015-03-08T09:54:06Z</time>
      </trkpt>
      <trkpt lat="48.52647" lon="1.96016">
        <ele>112</ele>
        <time>2015-03-08T09:54:14Z</time>
      </trkpt>
      <trkpt lat="48.52631" lon="1.96">
        <ele>112</ele>
        <time>2015-03-08T09:54:26Z</time>
      </trkpt>
      <trkpt lat="48.52626" lon="1.95988">
        <ele>112</ele>
        <time>2015-03-08T09:54:42Z</time>
      </trkpt>
      <trkpt lat="48.52602" lon="1.95926">
        <ele>110</ele>
        <time>2015-03-08T09:55:17Z</time>
      </trkpt>
      <trkpt lat="48.52591" lon="1.95886">
        <ele>109</ele>
        <time>2015-03-08T09:55:35Z</time>
      </trkpt>
      <trkpt lat="48.52583" lon="1.95877">
        <ele>109</ele>
        <time>2015-03-08T09:55:44Z</time>
      </trkpt>
      <trkpt lat="48.52577" lon="1.9585">
        <ele>109</ele>
        <time>2015-03-08T09:56:02Z</time>
      </trkpt>
      <trkpt lat="48.52554" lon="1.95819">
        <ele>110</ele>
        <time>2015-03-08T09:56:28Z</time>
      </trkpt>
      <trkpt lat="48.52534" lon="1.95771">
        <ele>112</ele>
        <time>2015-03-08T09:57:04Z</time>
      </trkpt>
      <trkpt lat="48.52529" lon="1.95758">
        <ele>113</ele>
        <time>2015-03-08T09:57:14Z</time>
      </trkpt>
      <trkpt lat="48.52517" lon="1.95736">
        <ele>114</ele>
        <time>2015-03-08T09:57:29Z</time>
      </trkpt>
      <trkpt lat="48.5251" lon="1.95726">
        <ele>114</ele>
        <time>2015-03-08T09:57:37Z</time>
      </trkpt>
      <trkpt lat="48.52491" lon="1.95721">
        <ele>113</ele>
        <time>2015-03-08T09:57:52Z</time>
      </trkpt>
      <trkpt lat="48.52483" lon="1.95727">
        <ele>112</ele>
        <time>2015-03-08T09:58:00Z</time>
      </trkpt>
      <trkpt lat="48.52464" lon="1.95723">
        <ele>111</ele>
        <time>2015-03-08T09:58:16Z</time>
      </trkpt>
      <trkpt lat="48.52426" lon="1.95725">
        <ele>110</ele>
        <time>2015-03-08T09:58:48Z</time>
      </trkpt>
      <trkpt lat="48.52389" lon="1.95729">
        <ele>109</ele>
        <time>2015-03-08T09:59:18Z</time>
      </trkpt>
      <trkpt lat="48.52364" lon="1.95722">
        <ele>109</ele>
        <time>2015-03-08T09:59:32Z</time>
      </trkpt>
      <trkpt lat="48.52358" lon="1.95715">
        <ele>109</ele>
        <time>2015-03-08T09:59:36Z</time>
      </trkpt>
      <trkpt lat="48.52339" lon="1.95703">
        <ele>109</ele>
        <time>2015-03-08T09:59:56Z</time>
      </trkpt>
      <trkpt lat="48.52314" lon="1.9568">
        <ele>109</ele>
        <time>2015-03-08T10:00:28Z</time>
      </trkpt>
      <trkpt lat="48.52284" lon="1.95641">
        <ele>110</ele>
        <time>2015-03-08T10:01:01Z</time>
      </trkpt>
      <trkpt lat="48.52273" lon="1.95588">
        <ele>111</ele>
        <time>2015-03-08T10:01:32Z</time>
      </trkpt>
      <trkpt lat="48.52268" lon="1.95576">
        <ele>111</ele>
        <time>2015-03-08T10:01:40Z</time>
      </trkpt>
      <trkpt lat="48.52267" lon="1.95562">
        <ele>113</ele>
        <time>2015-03-08T10:01:52Z</time>
      </trkpt>
      <trkpt lat="48.52258" lon="1.9549">
        <ele>115</ele>
        <time>2015-03-08T10:02:28Z</time>
      </trkpt>
      <trkpt lat="48.52249" lon="1.95451">
        <ele>116</ele>
        <time>2015-03-08T10:02:56Z</time>
      </trkpt>
      <trkpt lat="48.52239" lon="1.95447">
        <ele>116</ele>
        <time>2015-03-08T10:03:05Z</time>
      </trkpt>
      <trkpt lat="48.5223" lon="1.95442">
        <ele>114</ele>
        <time>2015-03-08T10:03:13Z</time>
      </trkpt>
      <trkpt lat="48.52221" lon="1.95449">
        <ele>114</ele>
        <time>2015-03-08T10:03:19Z</time>
      </trkpt>
      <trkpt lat="48.52187" lon="1.95479">
        <ele>113</ele>
        <time>2015-03-08T10:03:35Z</time>
      </trkpt>
      <trkpt lat="48.52176" lon="1.95493">
        <ele>113</ele>
        <time>2015-03-08T10:03:47Z</time>
      </trkpt>
      <trkpt lat="48.52171" lon="1.95493">
        <ele>114</ele>
        <time>2015-03-08T10:03:59Z</time>
      </trkpt>
      <trkpt lat="48.52166" lon="1.95499">
        <ele>114</ele>
        <time>2015-03-08T10:04:01Z</time>
      </trkpt>
      <trkpt lat="48.52157" lon="1.95494">
        <ele>113</ele>
        <time>2015-03-08T10:04:09Z</time>
      </trkpt>
      <trkpt lat="48.52149" lon="1.95489">
        <ele>113</ele>
        <time>2015-03-08T10:04:16Z</time>
      </trkpt>
      <trkpt lat="48.52139" lon="1.95492">
        <ele>112</ele>
        <time>2015-03-08T10:04:27Z</time>
      </trkpt>
      <trkpt lat="48.5211" lon="1.955">
        <ele>112</ele>
        <time>2015-03-08T10:04:59Z</time>
      </trkpt>
      <trkpt lat="48.52101" lon="1.95502">
        <ele>112</ele>
        <time>2015-03-08T10:05:07Z</time>
      </trkpt>
      <trkpt lat="48.52095" lon="1.95491">
        <ele>112</ele>
        <time>2015-03-08T10:05:14Z</time>
      </trkpt>
      <trkpt lat="48.52064" lon="1.95436">
        <ele>111</ele>
        <time>2015-03-08T10:05:47Z</time>
      </trkpt>
      <trkpt lat="48.52048" lon="1.95398">
        <ele>112</ele>
        <time>2015-03-08T10:06:20Z</time>
      </trkpt>
      <trkpt lat="48.52046" lon="1.95385">
        <ele>112</ele>
        <time>2015-03-08T10:06:31Z</time>
      </trkpt>
      <trkpt lat="48.52015" lon="1.95338">
        <ele>112</ele>
        <time>2015-03-08T10:07:08Z</time>
      </trkpt>
      <trkpt lat="48.51972" lon="1.95301">
        <ele>112</ele>
        <time>2015-03-08T10:07:44Z</time>
      </trkpt>
      <trkpt lat="48.51962" lon="1.95299">
        <ele>112</ele>
        <time>2015-03-08T10:07:52Z</time>
      </trkpt>
      <trkpt lat="48.51937" lon="1.95279">
        <ele>113</ele>
        <time>2015-03-08T10:08:15Z</time>
      </trkpt>
      <trkpt lat="48.51907" lon="1.9524">
        <ele>113</ele>
        <time>2015-03-08T10:08:47Z</time>
      </trkpt>
      <trkpt lat="48.51906" lon="1.95226">
        <ele>113</ele>
        <time>2015-03-08T10:08:54Z</time>
      </trkpt>
      <trkpt lat="48.51897" lon="1.95222">
        <ele>113</ele>
        <time>2015-03-08T10:09:02Z</time>
      </trkpt>
      <trkpt lat="48.51851" lon="1.95207">
        <ele>113</ele>
        <time>2015-03-08T10:09:35Z</time>
      </trkpt>
      <trkpt lat="48.51818" lon="1.9518">
        <ele>113</ele>
        <time>2015-03-08T10:10:07Z</time>
      </trkpt>
      <trkpt lat="48.51809" lon="1.95183">
        <ele>113</ele>
        <time>2015-03-08T10:10:14Z</time>
      </trkpt>
      <trkpt lat="48.51804" lon="1.9517">
        <ele>113</ele>
        <time>2015-03-08T10:10:24Z</time>
      </trkpt>
      <trkpt lat="48.51798" lon="1.95159">
        <ele>114</ele>
        <time>2015-03-08T10:10:38Z</time>
      </trkpt>
      <trkpt lat="48.51796" lon="1.95143">
        <ele>115</ele>
        <time>2015-03-08T10:10:50Z</time>
      </trkpt>
      <trkpt lat="48.51796" lon="1.95129">
        <ele>114</ele>
        <time>2015-03-08T10:11:00Z</time>
      </trkpt>
      <trkpt lat="48.5179" lon="1.95116">
        <ele>114</ele>
        <time>2015-03-08T10:11:07Z</time>
      </trkpt>
      <trkpt lat="48.51782" lon="1.95109">
        <ele>114</ele>
        <time>2015-03-08T10:11:13Z</time>
      </trkpt>
      <trkpt lat="48.51781" lon="1.95095">
        <ele>114</ele>
        <time>2015-03-08T10:11:23Z</time>
      </trkpt>
      <trkpt lat="48.5179" lon="1.95071">
        <ele>114</ele>
        <time>2015-03-08T10:11:39Z</time>
      </trkpt>
      <trkpt lat="48.51797" lon="1.95062">
        <ele>114</ele>
        <time>2015-03-08T10:11:46Z</time>
      </trkpt>
      <trkpt lat="48.51804" lon="1.95036">
        <ele>114</ele>
        <time>2015-03-08T10:12:03Z</time>
      </trkpt>
      <trkpt lat="48.51827" lon="1.95007">
        <ele>114</ele>
        <time>2015-03-08T10:12:24Z</time>
      </trkpt>
      <trkpt lat="48.5183" lon="1.94978">
        <ele>114</ele>
        <time>2015-03-08T10:12:45Z</time>
      </trkpt>
      <trkpt lat="48.51836" lon="1.94965">
        <ele>114</ele>
        <time>2015-03-08T10:12:52Z</time>
      </trkpt>
      <trkpt lat="48.51841" lon="1.94907">
        <ele>114</ele>
        <time>2015-03-08T10:13:16Z</time>
      </trkpt>
      <trkpt lat="48.51838" lon="1.94893">
        <ele>114</ele>
        <time>2015-03-08T10:13:24Z</time>
      </trkpt>
      <trkpt lat="48.51832" lon="1.94882">
        <ele>115</ele>
        <time>2015-03-08T10:13:30Z</time>
      </trkpt>
      <trkpt lat="48.51825" lon="1.94839">
        <ele>116</ele>
        <time>2015-03-08T10:13:52Z</time>
      </trkpt>
      <trkpt lat="48.51819" lon="1.94829">
        <ele>117</ele>
        <time>2015-03-08T10:14:04Z</time>
      </trkpt>
      <trkpt lat="48.51799" lon="1.94824">
        <ele>118</ele>
        <time>2015-03-08T10:14:18Z</time>
      </trkpt>
      <trkpt lat="48.51778" lon="1.94827">
        <ele>120</ele>
        <time>2015-03-08T10:14:36Z</time>
      </trkpt>
      <trkpt lat="48.51772" lon="1.94836">
        <ele>120</ele>
        <time>2015-03-08T10:14:42Z</time>
      </trkpt>
      <trkpt lat="48.51763" lon="1.94837">
        <ele>121</ele>
        <time>2015-03-08T10:14:48Z</time>
      </trkpt>
      <trkpt lat="48.51739" lon="1.94851">
        <ele>122</ele>
        <time>2015-03-08T10:15:07Z</time>
      </trkpt>
      <trkpt lat="48.51729" lon="1.9485">
        <ele>122</ele>
        <time>2015-03-08T10:15:13Z</time>
      </trkpt>
      <trkpt lat="48.51721" lon="1.9484">
        <ele>123</ele>
        <time>2015-03-08T10:15:22Z</time>
      </trkpt>
      <trkpt lat="48.51702" lon="1.94836">
        <ele>122</ele>
        <time>2015-03-08T10:15:42Z</time>
      </trkpt>
      <trkpt lat="48.51672" lon="1.94801">
        <ele>120</ele>
        <time>2015-03-08T10:16:14Z</time>
      </trkpt>
      <trkpt lat="48.51647" lon="1.94756">
        <ele>117</ele>
        <time>2015-03-08T10:16:46Z</time>
      </trkpt>
      <trkpt lat="48.51645" lon="1.94727">
        <ele>116</ele>
        <time>2015-03-08T10:17:01Z</time>
      </trkpt>
      <trkpt lat="48.51634" lon="1.94704">
        <ele>116</ele>
        <time>2015-03-08T10:17:11Z</time>
      </trkpt>
      <trkpt lat="48.51597" lon="1.94686">
        <ele>115</ele>
        <time>2015-03-08T10:17:43Z</time>
      </trkpt>
      <trkpt lat="48.51564" lon="1.94714">
        <ele>116</ele>
        <time>2015-03-08T10:18:13Z</time>
      </trkpt>
      <trkpt lat="48.51547" lon="1.9473">
        <ele>116</ele>
        <time>2015-03-08T10:18:32Z</time>
      </trkpt>
      <trkpt lat="48.51528" lon="1.94762">
        <ele>116</ele>
        <time>2015-03-08T10:18:55Z</time>
      </trkpt>
      <trkpt lat="48.51482" lon="1.94788">
        <ele>117</ele>
        <time>2015-03-08T10:19:32Z</time>
      </trkpt>
      <trkpt lat="48.51475" lon="1.94797">
        <ele>117</ele>
        <time>2015-03-08T10:19:38Z</time>
      </trkpt>
      <trkpt lat="48.51466" lon="1.948">
        <ele>117</ele>
        <time>2015-03-08T10:19:47Z</time>
      </trkpt>
      <trkpt lat="48.51419" lon="1.94813">
        <ele>116</ele>
        <time>2015-03-08T10:20:24Z</time>
      </trkpt>
      <trkpt lat="48.51406" lon="1.94818">
        <ele>116</ele>
        <time>2015-03-08T10:20:34Z</time>
      </trkpt>
      <trkpt lat="48.514" lon="1.94832">
        <ele>116</ele>
        <time>2015-03-08T10:20:41Z</time>
      </trkpt>
      <trkpt lat="48.51382" lon="1.94843">
        <ele>116</ele>
        <time>2015-03-08T10:20:55Z</time>
      </trkpt>
      <trkpt lat="48.51376" lon="1.94856">
        <ele>116</ele>
        <time>2015-03-08T10:21:04Z</time>
      </trkpt>
      <trkpt lat="48.51366" lon="1.94861">
        <ele>116</ele>
        <time>2015-03-08T10:21:20Z</time>
      </trkpt>
      <trkpt lat="48.51357" lon="1.94863">
        <ele>117</ele>
        <time>2015-03-08T10:21:25Z</time>
      </trkpt>
      <trkpt lat="48.5135" lon="1.9485">
        <ele>117</ele>
        <time>2015-03-08T10:21:47Z</time>
      </trkpt>
      <trkpt lat="48.51344" lon="1.94808">
        <ele>117</ele>
        <time>2015-03-08T10:22:29Z</time>
      </trkpt>
      <trkpt lat="48.51318" lon="1.94761">
        <ele>117</ele>
        <time>2015-03-08T10:22:55Z</time>
      </trkpt>
      <trkpt lat="48.51293" lon="1.94742">
        <ele>117</ele>
        <time>2015-03-08T10:23:29Z</time>
      </trkpt>
      <trkpt lat="48.51289" lon="1.94712">
        <ele>117</ele>
        <time>2015-03-08T10:23:42Z</time>
      </trkpt>
      <trkpt lat="48.51294" lon="1.947">
        <ele>118</ele>
        <time>2015-03-08T10:23:54Z</time>
      </trkpt>
      <trkpt lat="48.51288" lon="1.94672">
        <ele>118</ele>
        <time>2015-03-08T10:24:09Z</time>
      </trkpt>
      <trkpt lat="48.51279" lon="1.94646">
        <ele>118</ele>
        <time>2015-03-08T10:24:24Z</time>
      </trkpt>
      <trkpt lat="48.5128" lon="1.94617">
        <ele>118</ele>
        <time>2015-03-08T10:24:40Z</time>
      </trkpt>
      <trkpt lat="48.51289" lon="1.94593">
        <ele>118</ele>
        <time>2015-03-08T10:24:57Z</time>
      </trkpt>
      <trkpt lat="48.5129" lon="1.94563">
        <ele>118</ele>
        <time>2015-03-08T10:25:11Z</time>
      </trkpt>
      <trkpt lat="48.51307" lon="1.94529">
        <ele>118</ele>
        <time>2015-03-08T10:25:40Z</time>
      </trkpt>
      <trkpt lat="48.51308" lon="1.94513">
        <ele>119</ele>
        <time>2015-03-08T10:25:47Z</time>
      </trkpt>
      <trkpt lat="48.51316" lon="1.94507">
        <ele>119</ele>
        <time>2015-03-08T10:26:04Z</time>
      </trkpt>
      <trkpt lat="48.51322" lon="1.94516">
        <ele>118</ele>
        <time>2015-03-08T10:26:15Z</time>
      </trkpt>
      <trkpt lat="48.51327" lon="1.94527">
        <ele>118</ele>
        <time>2015-03-08T10:26:26Z</time>
      </trkpt>
      <trkpt lat="48.51344" lon="1.94542">
        <ele>117</ele>
        <time>2015-03-08T10:26:40Z</time>
      </trkpt>
      <trkpt lat="48.5135" lon="1.94554">
        <ele>117</ele>
        <time>2015-03-08T10:26:46Z</time>
      </trkpt>
      <trkpt lat="48.51366" lon="1.94564">
        <ele>117</ele>
        <time>2015-03-08T10:27:11Z</time>
      </trkpt>
      <trkpt lat="48.51357" lon="1.94568">
        <ele>117</ele>
        <time>2015-03-08T10:27:25Z</time>
      </trkpt>
      <trkpt lat="48.51363" lon="1.94581">
        <ele>117</ele>
        <time>2015-03-08T10:27:36Z</time>
      </trkpt>
      <trkpt lat="48.51388" lon="1.94538">
        <ele>117</ele>
        <time>2015-03-08T10:27:55Z</time>
      </trkpt>
      <trkpt lat="48.51377" lon="1.94536">
        <ele>117</ele>
        <time>2015-03-08T10:27:59Z</time>
      </trkpt>
      <trkpt lat="48.51375" lon="1.94551">
        <ele>117</ele>
        <time>2015-03-08T10:28:12Z</time>
      </trkpt>
      <trkpt lat="48.51377" lon="1.94556">
        <ele>117</ele>
        <time>2015-03-08T10:29:02Z</time>
      </trkpt>
      <trkpt lat="48.51368" lon="1.9456">
        <ele>117</ele>
        <time>2015-03-08T10:29:12Z</time>
      </trkpt>
      <trkpt lat="48.51367" lon="1.94568">
        <ele>117</ele>
        <time>2015-03-08T10:30:03Z</time>
      </trkpt>
      <trkpt lat="48.51378" lon="1.94566">
        <ele>117</ele>
        <time>2015-03-08T10:31:18Z</time>
      </trkpt>
      <trkpt lat="48.51372" lon="1.94557">
        <ele>117</ele>
        <time>2015-03-08T10:31:32Z</time>
      </trkpt>
      <trkpt lat="48.51361" lon="1.94518">
        <ele>117</ele>
        <time>2015-03-08T10:31:51Z</time>
      </trkpt>
      <trkpt lat="48.5136" lon="1.94504">
        <ele>117</ele>
        <time>2015-03-08T10:31:59Z</time>
      </trkpt>
      <trkpt lat="48.51355" lon="1.94493">
        <ele>117</ele>
        <time>2015-03-08T10:32:05Z</time>
      </trkpt>
      <trkpt lat="48.51355" lon="1.94477">
        <ele>117</ele>
        <time>2015-03-08T10:32:13Z</time>
      </trkpt>
      <trkpt lat="48.51345" lon="1.94449">
        <ele>117</ele>
        <time>2015-03-08T10:32:24Z</time>
      </trkpt>
      <trkpt lat="48.51344" lon="1.94421">
        <ele>118</ele>
        <time>2015-03-08T10:32:38Z</time>
      </trkpt>
      <trkpt lat="48.5135" lon="1.9441">
        <ele>118</ele>
        <time>2015-03-08T10:32:46Z</time>
      </trkpt>
      <trkpt lat="48.51361" lon="1.94368">
        <ele>119</ele>
        <time>2015-03-08T10:33:17Z</time>
      </trkpt>
      <trkpt lat="48.51363" lon="1.9434">
        <ele>119</ele>
        <time>2015-03-08T10:33:25Z</time>
      </trkpt>
      <trkpt lat="48.51369" lon="1.94326">
        <ele>119</ele>
        <time>2015-03-08T10:33:32Z</time>
      </trkpt>
      <trkpt lat="48.51384" lon="1.94309">
        <ele>119</ele>
        <time>2015-03-08T10:33:45Z</time>
      </trkpt>
      <trkpt lat="48.5139" lon="1.94253">
        <ele>119</ele>
        <time>2015-03-08T10:34:17Z</time>
      </trkpt>
      <trkpt lat="48.51377" lon="1.94187">
        <ele>120</ele>
        <time>2015-03-08T10:34:33Z</time>
      </trkpt>
      <trkpt lat="48.51368" lon="1.9419">
        <ele>122</ele>
        <time>2015-03-08T10:34:47Z</time>
      </trkpt>
      <trkpt lat="48.51365" lon="1.94176">
        <ele>122</ele>
        <time>2015-03-08T10:34:56Z</time>
      </trkpt>
      <trkpt lat="48.51333" lon="1.94123">
        <ele>126</ele>
        <time>2015-03-08T10:35:28Z</time>
      </trkpt>
      <trkpt lat="48.51315" lon="1.94075">
        <ele>129</ele>
        <time>2015-03-08T10:36:02Z</time>
      </trkpt>
      <trkpt lat="48.51318" lon="1.94069">
        <ele>129</ele>
        <time>2015-03-08T10:36:13Z</time>
      </trkpt>
      <trkpt lat="48.51312" lon="1.94055">
        <ele>130</ele>
        <time>2015-03-08T10:36:21Z</time>
      </trkpt>
      <trkpt lat="48.51281" lon="1.94">
        <ele>129</ele>
        <time>2015-03-08T10:37:01Z</time>
      </trkpt>
      <trkpt lat="48.51271" lon="1.93928">
        <ele>130</ele>
        <time>2015-03-08T10:37:35Z</time>
      </trkpt>
      <trkpt lat="48.51268" lon="1.939">
        <ele>130</ele>
        <time>2015-03-08T10:37:51Z</time>
      </trkpt>
      <trkpt lat="48.51262" lon="1.93887">
        <ele>130</ele>
        <time>2015-03-08T10:37:56Z</time>
      </trkpt>
      <trkpt lat="48.51245" lon="1.93839">
        <ele>127</ele>
        <time>2015-03-08T10:38:21Z</time>
      </trkpt>
      <trkpt lat="48.51235" lon="1.93836">
        <ele>127</ele>
        <time>2015-03-08T10:38:29Z</time>
      </trkpt>
      <trkpt lat="48.51227" lon="1.93827">
        <ele>126</ele>
        <time>2015-03-08T10:38:34Z</time>
      </trkpt>
      <trkpt lat="48.51209" lon="1.93773">
        <ele>123</ele>
        <time>2015-03-08T10:39:06Z</time>
      </trkpt>
      <trkpt lat="48.51181" lon="1.93703">
        <ele>122</ele>
        <time>2015-03-08T10:39:41Z</time>
      </trkpt>
      <trkpt lat="48.51176" lon="1.9369">
        <ele>122</ele>
        <time>2015-03-08T10:39:51Z</time>
      </trkpt>
      <trkpt lat="48.51169" lon="1.93634">
        <ele>122</ele>
        <time>2015-03-08T10:40:20Z</time>
      </trkpt>
      <trkpt lat="48.51161" lon="1.93627">
        <ele>122</ele>
        <time>2015-03-08T10:40:35Z</time>
      </trkpt>
      <trkpt lat="48.51163" lon="1.93614">
        <ele>122</ele>
        <time>2015-03-08T10:40:43Z</time>
      </trkpt>
      <trkpt lat="48.51162" lon="1.93598">
        <ele>122</ele>
        <time>2015-03-08T10:40:52Z</time>
      </trkpt>
      <trkpt lat="48.51141" lon="1.93533">
        <ele>122</ele>
        <time>2015-03-08T10:41:27Z</time>
      </trkpt>
      <trkpt lat="48.51122" lon="1.93438">
        <ele>123</ele>
        <time>2015-03-08T10:42:07Z</time>
      </trkpt>
      <trkpt lat="48.51122" lon="1.93435">
        <ele>123</ele>
        <time>2015-03-08T10:42:21Z</time>
      </trkpt>
      <trkpt lat="48.51114" lon="1.9343">
        <ele>123</ele>
        <time>2015-03-08T10:42:31Z</time>
      </trkpt>
      <trkpt lat="48.51114" lon="1.93422">
        <ele>123</ele>
        <time>2015-03-08T10:42:32Z</time>
      </trkpt>
      <trkpt lat="48.51114" lon="1.93391">
        <ele>124</ele>
        <time>2015-03-08T10:42:40Z</time>
      </trkpt>
      <trkpt lat="48.51109" lon="1.93377">
        <ele>124</ele>
        <time>2015-03-08T10:42:46Z</time>
      </trkpt>
      <trkpt lat="48.51092" lon="1.93351">
        <ele>124</ele>
        <time>2015-03-08T10:43:05Z</time>
      </trkpt>
      <trkpt lat="48.51093" lon="1.93337">
        <ele>125</ele>
        <time>2015-03-08T10:43:20Z</time>
      </trkpt>
      <trkpt lat="48.51086" lon="1.93325">
        <ele>126</ele>
        <time>2015-03-08T10:43:31Z</time>
      </trkpt>
      <trkpt lat="48.51084" lon="1.93297">
        <ele>128</ele>
        <time>2015-03-08T10:43:48Z</time>
      </trkpt>
      <trkpt lat="48.51078" lon="1.93286">
        <ele>128</ele>
        <time>2015-03-08T10:43:55Z</time>
      </trkpt>
      <trkpt lat="48.51077" lon="1.93272">
        <ele>129</ele>
        <time>2015-03-08T10:44:04Z</time>
      </trkpt>
      <trkpt lat="48.51075" lon="1.93259">
        <ele>129</ele>
        <time>2015-03-08T10:44:12Z</time>
      </trkpt>
      <trkpt lat="48.51082" lon="1.93216">
        <ele>127</ele>
        <time>2015-03-08T10:44:33Z</time>
      </trkpt>
      <trkpt lat="48.51076" lon="1.93203">
        <ele>127</ele>
        <time>2015-03-08T10:44:39Z</time>
      </trkpt>
      <trkpt lat="48.51076" lon="1.93189">
        <ele>126</ele>
        <time>2015-03-08T10:44:50Z</time>
      </trkpt>
      <trkpt lat="48.5107" lon="1.93178">
        <ele>126</ele>
        <time>2015-03-08T10:44:56Z</time>
      </trkpt>
      <trkpt lat="48.51036" lon="1.93151">
        <ele>125</ele>
        <time>2015-03-08T10:45:27Z</time>
      </trkpt>
      <trkpt lat="48.50991" lon="1.93125">
        <ele>124</ele>
        <time>2015-03-08T10:46:04Z</time>
      </trkpt>
      <trkpt lat="48.50983" lon="1.93118">
        <ele>123</ele>
        <time>2015-03-08T10:46:11Z</time>
      </trkpt>
      <trkpt lat="48.50978" lon="1.93106">
        <ele>123</ele>
        <time>2015-03-08T10:46:20Z</time>
      </trkpt>
      <trkpt lat="48.50976" lon="1.93092">
        <ele>122</ele>
        <time>2015-03-08T10:46:35Z</time>
      </trkpt>
      <trkpt lat="48.50973" lon="1.93062">
        <ele>122</ele>
        <time>2015-03-08T10:46:57Z</time>
      </trkpt>
      <trkpt lat="48.5094" lon="1.93005">
        <ele>122</ele>
        <time>2015-03-08T10:47:24Z</time>
      </trkpt>
      <trkpt lat="48.50933" lon="1.93">
        <ele>122</ele>
        <time>2015-03-08T10:47:42Z</time>
      </trkpt>
      <trkpt lat="48.50933" lon="1.92984">
        <ele>122</ele>
        <time>2015-03-08T10:47:48Z</time>
      </trkpt>
      <trkpt lat="48.50942" lon="1.92931">
        <ele>123</ele>
        <time>2015-03-08T10:48:15Z</time>
      </trkpt>
      <trkpt lat="48.50956" lon="1.92905">
        <ele>125</ele>
        <time>2015-03-08T10:48:45Z</time>
      </trkpt>
      <trkpt lat="48.50988" lon="1.92895">
        <ele>128</ele>
        <time>2015-03-08T10:49:13Z</time>
      </trkpt>
      <trkpt lat="48.50986" lon="1.92881">
        <ele>129</ele>
        <time>2015-03-08T10:49:21Z</time>
      </trkpt>
      <trkpt lat="48.50982" lon="1.92869">
        <ele>130</ele>
        <time>2015-03-08T10:49:26Z</time>
      </trkpt>
      <trkpt lat="48.50984" lon="1.92855">
        <ele>131</ele>
        <time>2015-03-08T10:49:37Z</time>
      </trkpt>
      <trkpt lat="48.50995" lon="1.92856">
        <ele>131</ele>
        <time>2015-03-08T10:49:48Z</time>
      </trkpt>
      <trkpt lat="48.50995" lon="1.92856">
        <ele>132</ele>
        <time>2015-03-08T10:52:34Z</time>
      </trkpt>
      <trkpt lat="48.51003" lon="1.92858">
        <ele>132</ele>
        <time>2015-03-08T10:54:18Z</time>
      </trkpt>
      <trkpt lat="48.51012" lon="1.92851">
        <ele>132</ele>
        <time>2015-03-08T10:54:23Z</time>
      </trkpt>
      <trkpt lat="48.51015" lon="1.92838">
        <ele>131</ele>
        <time>2015-03-08T10:54:31Z</time>
      </trkpt>
      <trkpt lat="48.51011" lon="1.92826">
        <ele>131</ele>
        <time>2015-03-08T10:54:37Z</time>
      </trkpt>
      <trkpt lat="48.51007" lon="1.92811">
        <ele>130</ele>
        <time>2015-03-08T10:54:42Z</time>
      </trkpt>
      <trkpt lat="48.50996" lon="1.92784">
        <ele>129</ele>
        <time>2015-03-08T10:55:12Z</time>
      </trkpt>
      <trkpt lat="48.50993" lon="1.92769">
        <ele>129</ele>
        <time>2015-03-08T10:55:22Z</time>
      </trkpt>
      <trkpt lat="48.50993" lon="1.92763">
        <ele>128</ele>
        <time>2015-03-08T10:55:57Z</time>
      </trkpt>
      <trkpt lat="48.50988" lon="1.92749">
        <ele>128</ele>
        <time>2015-03-08T10:56:01Z</time>
      </trkpt>
      <trkpt lat="48.50986" lon="1.92706">
        <ele>127</ele>
        <time>2015-03-08T10:56:16Z</time>
      </trkpt>
      <trkpt lat="48.50978" lon="1.92698">
        <ele>127</ele>
        <time>2015-03-08T10:56:28Z</time>
      </trkpt>
      <trkpt lat="48.50981" lon="1.92685">
        <ele>127</ele>
        <time>2015-03-08T10:56:33Z</time>
      </trkpt>
      <trkpt lat="48.50981" lon="1.92652">
        <ele>126</ele>
        <time>2015-03-08T10:56:51Z</time>
      </trkpt>
      <trkpt lat="48.50973" lon="1.92623">
        <ele>126</ele>
        <time>2015-03-08T10:57:12Z</time>
      </trkpt>
      <trkpt lat="48.50962" lon="1.92559">
        <ele>126</ele>
        <time>2015-03-08T10:57:46Z</time>
      </trkpt>
      <trkpt lat="48.50969" lon="1.9255">
        <ele>126</ele>
        <time>2015-03-08T10:57:57Z</time>
      </trkpt>
      <trkpt lat="48.50978" lon="1.92552">
        <ele>126</ele>
        <time>2015-03-08T10:58:02Z</time>
      </trkpt>
      <trkpt lat="48.50975" lon="1.92539">
        <ele>126</ele>
        <time>2015-03-08T10:58:13Z</time>
      </trkpt>
      <trkpt lat="48.50972" lon="1.92522">
        <ele>126</ele>
        <time>2015-03-08T10:58:24Z</time>
      </trkpt>
      <trkpt lat="48.50976" lon="1.92507">
        <ele>126</ele>
        <time>2015-03-08T10:58:32Z</time>
      </trkpt>
      <trkpt lat="48.50975" lon="1.92462">
        <ele>127</ele>
        <time>2015-03-08T10:58:51Z</time>
      </trkpt>
      <trkpt lat="48.50967" lon="1.92447">
        <ele>127</ele>
        <time>2015-03-08T10:58:56Z</time>
      </trkpt>
      <trkpt lat="48.50959" lon="1.92439">
        <ele>127</ele>
        <time>2015-03-08T10:59:04Z</time>
      </trkpt>
      <trkpt lat="48.50955" lon="1.92425">
        <ele>127</ele>
        <time>2015-03-08T10:59:14Z</time>
      </trkpt>
      <trkpt lat="48.50956" lon="1.92377">
        <ele>127</ele>
        <time>2015-03-08T10:59:47Z</time>
      </trkpt>
      <trkpt lat="48.50948" lon="1.9233">
        <ele>128</ele>
        <time>2015-03-08T11:00:20Z</time>
      </trkpt>
      <trkpt lat="48.50947" lon="1.92278">
        <ele>127</ele>
        <time>2015-03-08T11:00:44Z</time>
      </trkpt>
      <trkpt lat="48.5094" lon="1.92261">
        <ele>127</ele>
        <time>2015-03-08T11:00:48Z</time>
      </trkpt>
      <trkpt lat="48.5094" lon="1.92243">
        <ele>127</ele>
        <time>2015-03-08T11:00:52Z</time>
      </trkpt>
      <trkpt lat="48.50944" lon="1.92239">
        <ele>127</ele>
        <time>2015-03-08T11:01:09Z</time>
      </trkpt>
      <trkpt lat="48.5094" lon="1.92226">
        <ele>127</ele>
        <time>2015-03-08T11:01:18Z</time>
      </trkpt>
      <trkpt lat="48.50939" lon="1.92185">
        <ele>128</ele>
        <time>2015-03-08T11:01:44Z</time>
      </trkpt>
      <trkpt lat="48.50942" lon="1.92168">
        <ele>128</ele>
        <time>2015-03-08T11:02:06Z</time>
      </trkpt>
      <trkpt lat="48.50938" lon="1.92154">
        <ele>128</ele>
        <time>2015-03-08T11:02:13Z</time>
      </trkpt>
      <trkpt lat="48.50933" lon="1.92142">
        <ele>127</ele>
        <time>2015-03-08T11:02:21Z</time>
      </trkpt>
      <trkpt lat="48.50923" lon="1.9207">
        <ele>127</ele>
        <time>2015-03-08T11:02:52Z</time>
      </trkpt>
      <trkpt lat="48.50907" lon="1.92016">
        <ele>128</ele>
        <time>2015-03-08T11:03:22Z</time>
      </trkpt>
      <trkpt lat="48.50892" lon="1.91962">
        <ele>128</ele>
        <time>2015-03-08T11:03:55Z</time>
      </trkpt>
      <trkpt lat="48.5088" lon="1.91909">
        <ele>129</ele>
        <time>2015-03-08T11:04:22Z</time>
      </trkpt>
      <trkpt lat="48.50889" lon="1.91903">
        <ele>129</ele>
        <time>2015-03-08T11:04:26Z</time>
      </trkpt>
      <trkpt lat="48.50896" lon="1.91912">
        <ele>129</ele>
        <time>2015-03-08T11:04:33Z</time>
      </trkpt>
      <trkpt lat="48.50905" lon="1.91893">
        <ele>130</ele>
        <time>2015-03-08T11:04:47Z</time>
      </trkpt>
      <trkpt lat="48.50906" lon="1.91879">
        <ele>131</ele>
        <time>2015-03-08T11:04:57Z</time>
      </trkpt>
      <trkpt lat="48.50918" lon="1.91856">
        <ele>132</ele>
        <time>2015-03-08T11:05:17Z</time>
      </trkpt>
      <trkpt lat="48.50928" lon="1.91857">
        <ele>132</ele>
        <time>2015-03-08T11:05:25Z</time>
      </trkpt>
      <trkpt lat="48.5096" lon="1.91829">
        <ele>134</ele>
        <time>2015-03-08T11:06:03Z</time>
      </trkpt>
      <trkpt lat="48.50965" lon="1.91818">
        <ele>135</ele>
        <time>2015-03-08T11:06:10Z</time>
      </trkpt>
      <trkpt lat="48.50992" lon="1.91802">
        <ele>137</ele>
        <time>2015-03-08T11:06:34Z</time>
      </trkpt>
      <trkpt lat="48.51002" lon="1.91801">
        <ele>138</ele>
        <time>2015-03-08T11:06:45Z</time>
      </trkpt>
      <trkpt lat="48.51002" lon="1.91787">
        <ele>138</ele>
        <time>2015-03-08T11:06:55Z</time>
      </trkpt>
      <trkpt lat="48.5101" lon="1.91779">
        <ele>140</ele>
        <time>2015-03-08T11:07:08Z</time>
      </trkpt>
      <trkpt lat="48.51039" lon="1.9178">
        <ele>142</ele>
        <time>2015-03-08T11:07:26Z</time>
      </trkpt>
      <trkpt lat="48.5104" lon="1.91787">
        <ele>144</ele>
        <time>2015-03-08T11:07:37Z</time>
      </trkpt>
      <trkpt lat="48.51049" lon="1.91781">
        <ele>145</ele>
        <time>2015-03-08T11:07:44Z</time>
      </trkpt>
      <trkpt lat="48.51058" lon="1.91779">
        <ele>146</ele>
        <time>2015-03-08T11:07:50Z</time>
      </trkpt>
      <trkpt lat="48.51086" lon="1.91768">
        <ele>151</ele>
        <time>2015-03-08T11:08:20Z</time>
      </trkpt>
      <trkpt lat="48.51094" lon="1.91761">
        <ele>152</ele>
        <time>2015-03-08T11:08:29Z</time>
      </trkpt>
      <trkpt lat="48.51103" lon="1.91758">
        <ele>153</ele>
        <time>2015-03-08T11:08:38Z</time>
      </trkpt>
      <trkpt lat="48.51151" lon="1.91741">
        <ele>158</ele>
        <time>2015-03-08T11:09:20Z</time>
      </trkpt>
      <trkpt lat="48.51195" lon="1.91744">
        <ele>161</ele>
        <time>2015-03-08T11:09:51Z</time>
      </trkpt>
      <trkpt lat="48.5122" lon="1.91773">
        <ele>162</ele>
        <time>2015-03-08T11:10:25Z</time>
      </trkpt>
      <trkpt lat="48.51226" lon="1.91783">
        <ele>162</ele>
        <time>2015-03-08T11:10:31Z</time>
      </trkpt>
      <trkpt lat="48.51263" lon="1.91799">
        <ele>162</ele>
        <time>2015-03-08T11:11:06Z</time>
      </trkpt>
      <trkpt lat="48.51299" lon="1.91842">
        <ele>162</ele>
        <time>2015-03-08T11:11:43Z</time>
      </trkpt>
      <trkpt lat="48.51304" lon="1.91851">
        <ele>163</ele>
        <time>2015-03-08T11:15:41Z</time>
      </trkpt>
      <trkpt lat="48.51311" lon="1.91861">
        <ele>163</ele>
        <time>2015-03-08T11:15:50Z</time>
      </trkpt>
      <trkpt lat="48.5132" lon="1.91866">
        <ele>163</ele>
        <time>2015-03-08T11:15:57Z</time>
      </trkpt>
      <trkpt lat="48.51348" lon="1.91872">
        <ele>164</ele>
        <time>2015-03-08T11:16:24Z</time>
      </trkpt>
      <trkpt lat="48.51353" lon="1.91884">
        <ele>164</ele>
        <time>2015-03-08T11:16:33Z</time>
      </trkpt>
      <trkpt lat="48.51362" lon="1.91886">
        <ele>164</ele>
        <time>2015-03-08T11:16:42Z</time>
      </trkpt>
      <trkpt lat="48.51381" lon="1.91888">
        <ele>164</ele>
        <time>2015-03-08T11:17:01Z</time>
      </trkpt>
      <trkpt lat="48.51389" lon="1.9188">
        <ele>164</ele>
        <time>2015-03-08T11:17:12Z</time>
      </trkpt>
      <trkpt lat="48.51425" lon="1.91863">
        <ele>164</ele>
        <time>2015-03-08T11:17:47Z</time>
      </trkpt>
      <trkpt lat="48.51438" lon="1.91856">
        <ele>164</ele>
        <time>2015-03-08T11:18:05Z</time>
      </trkpt>
      <trkpt lat="48.51445" lon="1.91841">
        <ele>164</ele>
        <time>2015-03-08T11:19:26Z</time>
      </trkpt>
      <trkpt lat="48.51451" lon="1.91834">
        <ele>165</ele>
        <time>2015-03-08T11:19:29Z</time>
      </trkpt>
      <trkpt lat="48.51472" lon="1.91826">
        <ele>165</ele>
        <time>2015-03-08T11:19:46Z</time>
      </trkpt>
      <trkpt lat="48.51518" lon="1.91846">
        <ele>165</ele>
        <time>2015-03-08T11:20:21Z</time>
      </trkpt>
      <trkpt lat="48.51562" lon="1.91858">
        <ele>165</ele>
        <time>2015-03-08T11:20:54Z</time>
      </trkpt>
      <trkpt lat="48.51585" lon="1.91855">
        <ele>164</ele>
        <time>2015-03-08T11:21:10Z</time>
      </trkpt>
      <trkpt lat="48.5159" lon="1.91866">
        <ele>164</ele>
        <time>2015-03-08T11:21:15Z</time>
      </trkpt>
      <trkpt lat="48.51596" lon="1.91861">
        <ele>164</ele>
        <time>2015-03-08T11:21:18Z</time>
      </trkpt>
      <trkpt lat="48.51599" lon="1.91852">
        <ele>164</ele>
        <time>2015-03-08T11:21:22Z</time>
      </trkpt>
      <trkpt lat="48.51605" lon="1.91855">
        <ele>164</ele>
        <time>2015-03-08T11:21:26Z</time>
      </trkpt>
      <trkpt lat="48.51611" lon="1.91861">
        <ele>164</ele>
        <time>2015-03-08T11:21:28Z</time>
      </trkpt>
      <trkpt lat="48.51617" lon="1.91858">
        <ele>164</ele>
        <time>2015-03-08T11:21:30Z</time>
      </trkpt>
      <trkpt lat="48.51635" lon="1.91824">
        <ele>164</ele>
        <time>2015-03-08T11:21:43Z</time>
      </trkpt>
      <trkpt lat="48.51654" lon="1.91853">
        <ele>164</ele>
        <time>2015-03-08T11:22:00Z</time>
      </trkpt>
      <trkpt lat="48.51701" lon="1.9184">
        <ele>163</ele>
        <time>2015-03-08T11:22:41Z</time>
      </trkpt>
      <trkpt lat="48.51745" lon="1.91837">
        <ele>163</ele>
        <time>2015-03-08T11:23:13Z</time>
      </trkpt>
      <trkpt lat="48.51775" lon="1.91847">
        <ele>163</ele>
        <time>2015-03-08T11:23:43Z</time>
      </trkpt>
      <trkpt lat="48.51784" lon="1.91842">
        <ele>163</ele>
        <time>2015-03-08T11:23:53Z</time>
      </trkpt>
      <trkpt lat="48.51829" lon="1.91833">
        <ele>163</ele>
        <time>2015-03-08T11:24:27Z</time>
      </trkpt>
      <trkpt lat="48.51866" lon="1.91819">
        <ele>163</ele>
        <time>2015-03-08T11:25:03Z</time>
      </trkpt>
      <trkpt lat="48.51876" lon="1.91816">
        <ele>163</ele>
        <time>2015-03-08T11:25:11Z</time>
      </trkpt>
      <trkpt lat="48.51913" lon="1.91814">
        <ele>163</ele>
        <time>2015-03-08T11:25:42Z</time>
      </trkpt>
      <trkpt lat="48.51952" lon="1.91813">
        <ele>163</ele>
        <time>2015-03-08T11:26:14Z</time>
      </trkpt>
      <trkpt lat="48.5199" lon="1.91804">
        <ele>163</ele>
        <time>2015-03-08T11:26:48Z</time>
      </trkpt>
      <trkpt lat="48.52036" lon="1.91796">
        <ele>164</ele>
        <time>2015-03-08T11:27:27Z</time>
      </trkpt>
      <trkpt lat="48.52064" lon="1.91792">
        <ele>164</ele>
        <time>2015-03-08T11:27:51Z</time>
      </trkpt>
      <trkpt lat="48.52097" lon="1.91768">
        <ele>164</ele>
        <time>2015-03-08T11:28:23Z</time>
      </trkpt>
      <trkpt lat="48.52133" lon="1.91747">
        <ele>164</ele>
        <time>2015-03-08T11:28:54Z</time>
      </trkpt>
      <trkpt lat="48.52168" lon="1.9173">
        <ele>164</ele>
        <time>2015-03-08T11:29:30Z</time>
      </trkpt>
      <trkpt lat="48.52177" lon="1.91729">
        <ele>164</ele>
        <time>2015-03-08T11:29:34Z</time>
      </trkpt>
      <trkpt lat="48.52186" lon="1.91735">
        <ele>164</ele>
        <time>2015-03-08T11:29:39Z</time>
      </trkpt>
      <trkpt lat="48.52222" lon="1.91734">
        <ele>164</ele>
        <time>2015-03-08T11:30:15Z</time>
      </trkpt>
      <trkpt lat="48.52234" lon="1.91735">
        <ele>164</ele>
        <time>2015-03-08T11:30:20Z</time>
      </trkpt>
      <trkpt lat="48.52252" lon="1.91723">
        <ele>164</ele>
        <time>2015-03-08T11:30:24Z</time>
      </trkpt>
      <trkpt lat="48.52246" lon="1.91732">
        <ele>164</ele>
        <time>2015-03-08T11:30:30Z</time>
      </trkpt>
      <trkpt lat="48.52246" lon="1.91746">
        <ele>164</ele>
        <time>2015-03-08T11:30:38Z</time>
      </trkpt>
      <trkpt lat="48.52255" lon="1.91742">
        <ele>164</ele>
        <time>2015-03-08T11:30:44Z</time>
      </trkpt>
      <trkpt lat="48.52301" lon="1.91743">
        <ele>164</ele>
        <time>2015-03-08T11:31:20Z</time>
      </trkpt>
      <trkpt lat="48.52308" lon="1.91753">
        <ele>164</ele>
        <time>2015-03-08T11:31:30Z</time>
      </trkpt>
      <trkpt lat="48.52317" lon="1.91748">
        <ele>163</ele>
        <time>2015-03-08T11:31:41Z</time>
      </trkpt>
      <trkpt lat="48.52321" lon="1.91754">
        <ele>163</ele>
        <time>2015-03-08T11:31:43Z</time>
      </trkpt>
      <trkpt lat="48.52325" lon="1.91761">
        <ele>163</ele>
        <time>2015-03-08T11:31:45Z</time>
      </trkpt>
      <trkpt lat="48.5234" lon="1.91764">
        <ele>163</ele>
        <time>2015-03-08T11:31:56Z</time>
      </trkpt>
      <trkpt lat="48.52347" lon="1.91777">
        <ele>163</ele>
        <time>2015-03-08T11:32:03Z</time>
      </trkpt>
      <trkpt lat="48.52368" lon="1.91786">
        <ele>163</ele>
        <time>2015-03-08T11:32:17Z</time>
      </trkpt>
      <trkpt lat="48.52373" lon="1.91786">
        <ele>163</ele>
        <time>2015-03-08T11:32:20Z</time>
      </trkpt>
      <trkpt lat="48.52389" lon="1.918">
        <ele>162</ele>
        <time>2015-03-08T11:32:39Z</time>
      </trkpt>
      <trkpt lat="48.52402" lon="1.91799">
        <ele>162</ele>
        <time>2015-03-08T11:32:51Z</time>
      </trkpt>
      <trkpt lat="48.5244" lon="1.91803">
        <ele>161</ele>
        <time>2015-03-08T11:33:23Z</time>
      </trkpt>
      <trkpt lat="48.52478" lon="1.91813">
        <ele>160</ele>
        <time>2015-03-08T11:33:50Z</time>
      </trkpt>
      <trkpt lat="48.52486" lon="1.91806">
        <ele>160</ele>
        <time>2015-03-08T11:34:00Z</time>
      </trkpt>
      <trkpt lat="48.52495" lon="1.91794">
        <ele>160</ele>
        <time>2015-03-08T11:34:10Z</time>
      </trkpt>
      <trkpt lat="48.52523" lon="1.91791">
        <ele>160</ele>
        <time>2015-03-08T11:34:36Z</time>
      </trkpt>
      <trkpt lat="48.5253" lon="1.91781">
        <ele>161</ele>
        <time>2015-03-08T11:34:42Z</time>
      </trkpt>
      <trkpt lat="48.52539" lon="1.91778">
        <ele>161</ele>
        <time>2015-03-08T11:34:50Z</time>
      </trkpt>
      <trkpt lat="48.52538" lon="1.91788">
        <ele>161</ele>
        <time>2015-03-08T11:35:37Z</time>
      </trkpt>
      <trkpt lat="48.52534" lon="1.91845">
        <ele>161</ele>
        <time>2015-03-08T11:36:07Z</time>
      </trkpt>
      <trkpt lat="48.5254" lon="1.91873">
        <ele>162</ele>
        <time>2015-03-08T11:36:29Z</time>
      </trkpt>
      <trkpt lat="48.52545" lon="1.91879">
        <ele>161</ele>
        <time>2015-03-08T12:34:15Z</time>
      </trkpt>
      <trkpt lat="48.52538" lon="1.91864">
        <ele>161</ele>
        <time>2015-03-08T12:35:11Z</time>
      </trkpt>
      <trkpt lat="48.52527" lon="1.9184">
        <ele>161</ele>
        <time>2015-03-08T12:35:30Z</time>
      </trkpt>
      <trkpt lat="48.52526" lon="1.91825">
        <ele>161</ele>
        <time>2015-03-08T12:35:37Z</time>
      </trkpt>
      <trkpt lat="48.52541" lon="1.91799">
        <ele>161</ele>
        <time>2015-03-08T12:35:52Z</time>
      </trkpt>
      <trkpt lat="48.52538" lon="1.91785">
        <ele>161</ele>
        <time>2015-03-08T12:36:00Z</time>
      </trkpt>
      <trkpt lat="48.52537" lon="1.91771">
        <ele>161</ele>
        <time>2015-03-08T12:36:10Z</time>
      </trkpt>
      <trkpt lat="48.52543" lon="1.91761">
        <ele>160</ele>
        <time>2015-03-08T12:36:15Z</time>
      </trkpt>
      <trkpt lat="48.52559" lon="1.91752">
        <ele>161</ele>
        <time>2015-03-08T12:36:34Z</time>
      </trkpt>
      <trkpt lat="48.52582" lon="1.91758">
        <ele>161</ele>
        <time>2015-03-08T12:36:50Z</time>
      </trkpt>
      <trkpt lat="48.52587" lon="1.91746">
        <ele>161</ele>
        <time>2015-03-08T12:36:58Z</time>
      </trkpt>
      <trkpt lat="48.52602" lon="1.91728">
        <ele>162</ele>
        <time>2015-03-08T12:37:08Z</time>
      </trkpt>
      <trkpt lat="48.5261" lon="1.91738">
        <ele>162</ele>
        <time>2015-03-08T12:37:16Z</time>
      </trkpt>
      <trkpt lat="48.52619" lon="1.91734">
        <ele>162</ele>
        <time>2015-03-08T12:37:25Z</time>
      </trkpt>
      <trkpt lat="48.52648" lon="1.91733">
        <ele>162</ele>
        <time>2015-03-08T12:37:49Z</time>
      </trkpt>
      <trkpt lat="48.52645" lon="1.91747">
        <ele>162</ele>
        <time>2015-03-08T12:37:59Z</time>
      </trkpt>
      <trkpt lat="48.52654" lon="1.91747">
        <ele>162</ele>
        <time>2015-03-08T12:38:12Z</time>
      </trkpt>
      <trkpt lat="48.52671" lon="1.91761">
        <ele>163</ele>
        <time>2015-03-08T12:38:26Z</time>
      </trkpt>
      <trkpt lat="48.52676" lon="1.91774">
        <ele>163</ele>
        <time>2015-03-08T12:38:33Z</time>
      </trkpt>
      <trkpt lat="48.5271" lon="1.91803">
        <ele>163</ele>
        <time>2015-03-08T12:39:00Z</time>
      </trkpt>
      <trkpt lat="48.52719" lon="1.91804">
        <ele>163</ele>
        <time>2015-03-08T12:39:08Z</time>
      </trkpt>
      <trkpt lat="48.52727" lon="1.91812">
        <ele>163</ele>
        <time>2015-03-08T12:39:15Z</time>
      </trkpt>
      <trkpt lat="48.52729" lon="1.9182">
        <ele>163</ele>
        <time>2015-03-08T12:39:17Z</time>
      </trkpt>
      <trkpt lat="48.5274" lon="1.91819">
        <ele>163</ele>
        <time>2015-03-08T12:39:28Z</time>
      </trkpt>
      <trkpt lat="48.52749" lon="1.91826">
        <ele>163</ele>
        <time>2015-03-08T12:39:36Z</time>
      </trkpt>
      <trkpt lat="48.52756" lon="1.91844">
        <ele>163</ele>
        <time>2015-03-08T12:39:45Z</time>
      </trkpt>
      <trkpt lat="48.52784" lon="1.9186">
        <ele>163</ele>
        <time>2015-03-08T12:40:10Z</time>
      </trkpt>
      <trkpt lat="48.52793" lon="1.91855">
        <ele>163</ele>
        <time>2015-03-08T12:40:17Z</time>
      </trkpt>
      <trkpt lat="48.52802" lon="1.9186">
        <ele>163</ele>
        <time>2015-03-08T12:40:24Z</time>
      </trkpt>
      <trkpt lat="48.52809" lon="1.9187">
        <ele>163</ele>
        <time>2015-03-08T12:40:31Z</time>
      </trkpt>
      <trkpt lat="48.52843" lon="1.91896">
        <ele>162</ele>
        <time>2015-03-08T12:41:06Z</time>
      </trkpt>
      <trkpt lat="48.52879" lon="1.91913">
        <ele>162</ele>
        <time>2015-03-08T12:41:39Z</time>
      </trkpt>
      <trkpt lat="48.52885" lon="1.91925">
        <ele>162</ele>
        <time>2015-03-08T12:41:45Z</time>
      </trkpt>
      <trkpt lat="48.52893" lon="1.91929">
        <ele>162</ele>
        <time>2015-03-08T12:41:53Z</time>
      </trkpt>
      <trkpt lat="48.52903" lon="1.9193">
        <ele>162</ele>
        <time>2015-03-08T12:42:00Z</time>
      </trkpt>
      <trkpt lat="48.52933" lon="1.91968">
        <ele>161</ele>
        <time>2015-03-08T12:42:30Z</time>
      </trkpt>
      <trkpt lat="48.52943" lon="1.91965">
        <ele>161</ele>
        <time>2015-03-08T12:42:37Z</time>
      </trkpt>
      <trkpt lat="48.52977" lon="1.9199">
        <ele>160</ele>
        <time>2015-03-08T12:43:11Z</time>
      </trkpt>
      <trkpt lat="48.5299" lon="1.92011">
        <ele>159</ele>
        <time>2015-03-08T12:43:25Z</time>
      </trkpt>
      <trkpt lat="48.52998" lon="1.92003">
        <ele>159</ele>
        <time>2015-03-08T12:43:31Z</time>
      </trkpt>
      <trkpt lat="48.53007" lon="1.92004">
        <ele>158</ele>
        <time>2015-03-08T12:43:38Z</time>
      </trkpt>
      <trkpt lat="48.53041" lon="1.92031">
        <ele>156</ele>
        <time>2015-03-08T12:44:10Z</time>
      </trkpt>
      <trkpt lat="48.53047" lon="1.92042">
        <ele>156</ele>
        <time>2015-03-08T12:44:15Z</time>
      </trkpt>
      <trkpt lat="48.53081" lon="1.92069">
        <ele>153</ele>
        <time>2015-03-08T12:44:47Z</time>
      </trkpt>
      <trkpt lat="48.5309" lon="1.92074">
        <ele>152</ele>
        <time>2015-03-08T12:44:55Z</time>
      </trkpt>
      <trkpt lat="48.53119" lon="1.92114">
        <ele>151</ele>
        <time>2015-03-08T12:45:24Z</time>
      </trkpt>
      <trkpt lat="48.53128" lon="1.9211">
        <ele>151</ele>
        <time>2015-03-08T12:45:33Z</time>
      </trkpt>
      <trkpt lat="48.53136" lon="1.92105">
        <ele>151</ele>
        <time>2015-03-08T12:45:49Z</time>
      </trkpt>
      <trkpt lat="48.53146" lon="1.92108">
        <ele>151</ele>
        <time>2015-03-08T12:49:00Z</time>
      </trkpt>
      <trkpt lat="48.53156" lon="1.92117">
        <ele>152</ele>
        <time>2015-03-08T12:49:16Z</time>
      </trkpt>
      <trkpt lat="48.5316" lon="1.9213">
        <ele>153</ele>
        <time>2015-03-08T12:49:25Z</time>
      </trkpt>
      <trkpt lat="48.53176" lon="1.92142">
        <ele>155</ele>
        <time>2015-03-08T12:49:46Z</time>
      </trkpt>
      <trkpt lat="48.53186" lon="1.92142">
        <ele>157</ele>
        <time>2015-03-08T12:49:55Z</time>
      </trkpt>
      <trkpt lat="48.5319" lon="1.92148">
        <ele>158</ele>
        <time>2015-03-08T12:50:08Z</time>
      </trkpt>
      <trkpt lat="48.53192" lon="1.9216">
        <ele>158</ele>
        <time>2015-03-08T12:50:22Z</time>
      </trkpt>
      <trkpt lat="48.53201" lon="1.92169">
        <ele>159</ele>
        <time>2015-03-08T12:50:37Z</time>
      </trkpt>
      <trkpt lat="48.53209" lon="1.92175">
        <ele>160</ele>
        <time>2015-03-08T12:50:47Z</time>
      </trkpt>
      <trkpt lat="48.53233" lon="1.92221">
        <ele>161</ele>
        <time>2015-03-08T12:51:12Z</time>
      </trkpt>
      <trkpt lat="48.53242" lon="1.92219">
        <ele>161</ele>
        <time>2015-03-08T12:51:21Z</time>
      </trkpt>
      <trkpt lat="48.53246" lon="1.92233">
        <ele>161</ele>
        <time>2015-03-08T12:51:28Z</time>
      </trkpt>
      <trkpt lat="48.53248" lon="1.92247">
        <ele>161</ele>
        <time>2015-03-08T12:51:36Z</time>
      </trkpt>
      <trkpt lat="48.53257" lon="1.92253">
        <ele>161</ele>
        <time>2015-03-08T12:52:10Z</time>
      </trkpt>
      <trkpt lat="48.53263" lon="1.92265">
        <ele>162</ele>
        <time>2015-03-08T12:52:19Z</time>
      </trkpt>
      <trkpt lat="48.53271" lon="1.9227">
        <ele>162</ele>
        <time>2015-03-08T12:52:28Z</time>
      </trkpt>
      <trkpt lat="48.5328" lon="1.92269">
        <ele>162</ele>
        <time>2015-03-08T12:52:34Z</time>
      </trkpt>
      <trkpt lat="48.53308" lon="1.92288">
        <ele>162</ele>
        <time>2015-03-08T12:53:00Z</time>
      </trkpt>
      <trkpt lat="48.53315" lon="1.92301">
        <ele>162</ele>
        <time>2015-03-08T12:53:05Z</time>
      </trkpt>
      <trkpt lat="48.53324" lon="1.92299">
        <ele>162</ele>
        <time>2015-03-08T12:53:17Z</time>
      </trkpt>
      <trkpt lat="48.53332" lon="1.92293">
        <ele>162</ele>
        <time>2015-03-08T12:53:25Z</time>
      </trkpt>
      <trkpt lat="48.53362" lon="1.92289">
        <ele>162</ele>
        <time>2015-03-08T12:54:09Z</time>
      </trkpt>
      <trkpt lat="48.53369" lon="1.92299">
        <ele>162</ele>
        <time>2015-03-08T12:54:17Z</time>
      </trkpt>
      <trkpt lat="48.53376" lon="1.92308">
        <ele>162</ele>
        <time>2015-03-08T12:54:25Z</time>
      </trkpt>
      <trkpt lat="48.53378" lon="1.92322">
        <ele>163</ele>
        <time>2015-03-08T12:54:35Z</time>
      </trkpt>
      <trkpt lat="48.53403" lon="1.92365">
        <ele>163</ele>
        <time>2015-03-08T12:55:07Z</time>
      </trkpt>
      <trkpt lat="48.53421" lon="1.92379">
        <ele>163</ele>
        <time>2015-03-08T12:55:18Z</time>
      </trkpt>
      <trkpt lat="48.53429" lon="1.92405">
        <ele>163</ele>
        <time>2015-03-08T12:55:32Z</time>
      </trkpt>
      <trkpt lat="48.53438" lon="1.92408">
        <ele>163</ele>
        <time>2015-03-08T12:55:40Z</time>
      </trkpt>
      <trkpt lat="48.53452" lon="1.92427">
        <ele>163</ele>
        <time>2015-03-08T12:55:55Z</time>
      </trkpt>
      <trkpt lat="48.53458" lon="1.92456">
        <ele>163</ele>
        <time>2015-03-08T12:56:09Z</time>
      </trkpt>
      <trkpt lat="48.53465" lon="1.92464">
        <ele>163</ele>
        <time>2015-03-08T12:56:18Z</time>
      </trkpt>
      <trkpt lat="48.53482" lon="1.92475">
        <ele>163</ele>
        <time>2015-03-08T12:56:49Z</time>
      </trkpt>
      <trkpt lat="48.5349" lon="1.92483">
        <ele>163</ele>
        <time>2015-03-08T12:56:59Z</time>
      </trkpt>
      <trkpt lat="48.53497" lon="1.92511">
        <ele>163</ele>
        <time>2015-03-08T12:57:11Z</time>
      </trkpt>
      <trkpt lat="48.53506" lon="1.92513">
        <ele>163</ele>
        <time>2015-03-08T12:57:17Z</time>
      </trkpt>
      <trkpt lat="48.53509" lon="1.92527">
        <ele>163</ele>
        <time>2015-03-08T12:57:27Z</time>
      </trkpt>
      <trkpt lat="48.53513" lon="1.9253">
        <ele>163</ele>
        <time>2015-03-08T12:57:30Z</time>
      </trkpt>
      <trkpt lat="48.53518" lon="1.92551">
        <ele>164</ele>
        <time>2015-03-08T12:57:37Z</time>
      </trkpt>
      <trkpt lat="48.53531" lon="1.92571">
        <ele>164</ele>
        <time>2015-03-08T12:57:56Z</time>
      </trkpt>
      <trkpt lat="48.5354" lon="1.92577">
        <ele>164</ele>
        <time>2015-03-08T12:58:07Z</time>
      </trkpt>
      <trkpt lat="48.53548" lon="1.92588">
        <ele>165</ele>
        <time>2015-03-08T12:58:15Z</time>
      </trkpt>
      <trkpt lat="48.53556" lon="1.92597">
        <ele>164</ele>
        <time>2015-03-08T12:58:22Z</time>
      </trkpt>
      <trkpt lat="48.53567" lon="1.92639">
        <ele>164</ele>
        <time>2015-03-08T12:58:46Z</time>
      </trkpt>
      <trkpt lat="48.53577" lon="1.92645">
        <ele>164</ele>
        <time>2015-03-08T12:58:53Z</time>
      </trkpt>
      <trkpt lat="48.53586" lon="1.92647">
        <ele>164</ele>
        <time>2015-03-08T12:58:59Z</time>
      </trkpt>
      <trkpt lat="48.53595" lon="1.92639">
        <ele>164</ele>
        <time>2015-03-08T12:59:06Z</time>
      </trkpt>
      <trkpt lat="48.53603" lon="1.92647">
        <ele>164</ele>
        <time>2015-03-08T12:59:14Z</time>
      </trkpt>
      <trkpt lat="48.53625" lon="1.92672">
        <ele>163</ele>
        <time>2015-03-08T12:59:33Z</time>
      </trkpt>
      <trkpt lat="48.53628" lon="1.92684">
        <ele>163</ele>
        <time>2015-03-08T12:59:56Z</time>
      </trkpt>
      <trkpt lat="48.53621" lon="1.92685">
        <ele>163</ele>
        <time>2015-03-08T13:00:38Z</time>
      </trkpt>
      <trkpt lat="48.53624" lon="1.927">
        <ele>163</ele>
        <time>2015-03-08T13:00:44Z</time>
      </trkpt>
      <trkpt lat="48.53635" lon="1.92697">
        <ele>164</ele>
        <time>2015-03-08T13:00:51Z</time>
      </trkpt>
      <trkpt lat="48.5363" lon="1.92686">
        <ele>164</ele>
        <time>2015-03-08T13:01:03Z</time>
      </trkpt>
      <trkpt lat="48.53595" lon="1.92653">
        <ele>164</ele>
        <time>2015-03-08T13:01:34Z</time>
      </trkpt>
      <trkpt lat="48.53605" lon="1.92657">
        <ele>164</ele>
        <time>2015-03-08T13:01:44Z</time>
      </trkpt>
      <trkpt lat="48.53609" lon="1.92654">
        <ele>164</ele>
        <time>2015-03-08T13:02:42Z</time>
      </trkpt>
      <trkpt lat="48.53613" lon="1.92668">
        <ele>164</ele>
        <time>2015-03-08T13:02:46Z</time>
      </trkpt>
      <trkpt lat="48.53612" lon="1.92681">
        <ele>164</ele>
        <time>2015-03-08T13:02:54Z</time>
      </trkpt>
      <trkpt lat="48.53626" lon="1.92699">
        <ele>164</ele>
        <time>2015-03-08T13:03:16Z</time>
      </trkpt>
      <trkpt lat="48.53635" lon="1.92693">
        <ele>164</ele>
        <time>2015-03-08T13:03:22Z</time>
      </trkpt>
      <trkpt lat="48.53641" lon="1.92691">
        <ele>164</ele>
        <time>2015-03-08T13:03:37Z</time>
      </trkpt>
      <trkpt lat="48.5366" lon="1.92695">
        <ele>163</ele>
        <time>2015-03-08T13:03:56Z</time>
      </trkpt>
      <trkpt lat="48.53694" lon="1.92732">
        <ele>161</ele>
        <time>2015-03-08T13:04:29Z</time>
      </trkpt>
      <trkpt lat="48.53703" lon="1.92727">
        <ele>161</ele>
        <time>2015-03-08T13:04:37Z</time>
      </trkpt>
      <trkpt lat="48.5374" lon="1.92736">
        <ele>159</ele>
        <time>2015-03-08T13:05:17Z</time>
      </trkpt>
      <trkpt lat="48.53749" lon="1.92732">
        <ele>157</ele>
        <time>2015-03-08T13:05:28Z</time>
      </trkpt>
      <trkpt lat="48.53752" lon="1.92747">
        <ele>157</ele>
        <time>2015-03-08T13:05:36Z</time>
      </trkpt>
      <trkpt lat="48.5376" lon="1.92756">
        <ele>156</ele>
        <time>2015-03-08T13:05:43Z</time>
      </trkpt>
      <trkpt lat="48.53769" lon="1.92757">
        <ele>156</ele>
        <time>2015-03-08T13:05:47Z</time>
      </trkpt>
      <trkpt lat="48.53773" lon="1.92737">
        <ele>156</ele>
        <time>2015-03-08T13:05:53Z</time>
      </trkpt>
      <trkpt lat="48.53772" lon="1.92744">
        <ele>155</ele>
        <time>2015-03-08T13:06:05Z</time>
      </trkpt>
      <trkpt lat="48.53782" lon="1.92748">
        <ele>155</ele>
        <time>2015-03-08T13:06:36Z</time>
      </trkpt>
      <trkpt lat="48.53794" lon="1.92767">
        <ele>153</ele>
        <time>2015-03-08T13:07:02Z</time>
      </trkpt>
      <trkpt lat="48.53791" lon="1.92761">
        <ele>153</ele>
        <time>2015-03-08T13:07:15Z</time>
      </trkpt>
      <trkpt lat="48.53802" lon="1.92752">
        <ele>153</ele>
        <time>2015-03-08T13:08:21Z</time>
      </trkpt>
      <trkpt lat="48.53825" lon="1.9277">
        <ele>152</ele>
        <time>2015-03-08T13:08:50Z</time>
      </trkpt>
      <trkpt lat="48.53842" lon="1.92791">
        <ele>150</ele>
        <time>2015-03-08T13:09:05Z</time>
      </trkpt>
      <trkpt lat="48.53855" lon="1.92777">
        <ele>149</ele>
        <time>2015-03-08T13:09:15Z</time>
      </trkpt>
      <trkpt lat="48.53863" lon="1.92769">
        <ele>148</ele>
        <time>2015-03-08T13:09:24Z</time>
      </trkpt>
      <trkpt lat="48.5387" lon="1.92789">
        <ele>148</ele>
        <time>2015-03-08T13:09:40Z</time>
      </trkpt>
      <trkpt lat="48.53884" lon="1.92808">
        <ele>148</ele>
        <time>2015-03-08T13:09:50Z</time>
      </trkpt>
      <trkpt lat="48.53908" lon="1.9283">
        <ele>149</ele>
        <time>2015-03-08T13:10:12Z</time>
      </trkpt>
      <trkpt lat="48.53908" lon="1.92845">
        <ele>150</ele>
        <time>2015-03-08T13:10:19Z</time>
      </trkpt>
      <trkpt lat="48.53925" lon="1.92894">
        <ele>154</ele>
        <time>2015-03-08T13:10:53Z</time>
      </trkpt>
      <trkpt lat="48.53928" lon="1.92907">
        <ele>154</ele>
        <time>2015-03-08T13:11:01Z</time>
      </trkpt>
      <trkpt lat="48.53936" lon="1.92915">
        <ele>155</ele>
        <time>2015-03-08T13:11:09Z</time>
      </trkpt>
      <trkpt lat="48.53945" lon="1.92922">
        <ele>156</ele>
        <time>2015-03-08T13:11:13Z</time>
      </trkpt>
      <trkpt lat="48.53973" lon="1.92967">
        <ele>159</ele>
        <time>2015-03-08T13:11:46Z</time>
      </trkpt>
      <trkpt lat="48.53993" lon="1.92997">
        <ele>162</ele>
        <time>2015-03-08T13:12:17Z</time>
      </trkpt>
      <trkpt lat="48.53996" lon="1.93012">
        <ele>162</ele>
        <time>2015-03-08T13:12:24Z</time>
      </trkpt>
      <trkpt lat="48.54005" lon="1.93017">
        <ele>162</ele>
        <time>2015-03-08T13:12:32Z</time>
      </trkpt>
      <trkpt lat="48.54024" lon="1.93012">
        <ele>163</ele>
        <time>2015-03-08T13:12:48Z</time>
      </trkpt>
      <trkpt lat="48.54033" lon="1.93006">
        <ele>163</ele>
        <time>2015-03-08T13:12:56Z</time>
      </trkpt>
      <trkpt lat="48.54034" lon="1.9302">
        <ele>163</ele>
        <time>2015-03-08T13:13:10Z</time>
      </trkpt>
      <trkpt lat="48.54027" lon="1.93032">
        <ele>163</ele>
        <time>2015-03-08T13:13:16Z</time>
      </trkpt>
      <trkpt lat="48.54029" lon="1.93035">
        <ele>162</ele>
        <time>2015-03-08T13:14:04Z</time>
      </trkpt>
      <trkpt lat="48.54037" lon="1.93037">
        <ele>162</ele>
        <time>2015-03-08T13:14:55Z</time>
      </trkpt>
      <trkpt lat="48.54046" lon="1.93035">
        <ele>162</ele>
        <time>2015-03-08T13:15:02Z</time>
      </trkpt>
      <trkpt lat="48.54054" lon="1.93041">
        <ele>162</ele>
        <time>2015-03-08T13:15:09Z</time>
      </trkpt>
      <trkpt lat="48.54056" lon="1.93057">
        <ele>162</ele>
        <time>2015-03-08T13:15:17Z</time>
      </trkpt>
      <trkpt lat="48.54052" lon="1.93071">
        <ele>162</ele>
        <time>2015-03-08T13:15:23Z</time>
      </trkpt>
      <trkpt lat="48.54056" lon="1.93086">
        <ele>162</ele>
        <time>2015-03-08T13:15:33Z</time>
      </trkpt>
      <trkpt lat="48.54073" lon="1.93119">
        <ele>161</ele>
        <time>2015-03-08T13:15:58Z</time>
      </trkpt>
      <trkpt lat="48.54096" lon="1.9318">
        <ele>159</ele>
        <time>2015-03-08T13:16:32Z</time>
      </trkpt>
      <trkpt lat="48.5412" lon="1.93228">
        <ele>156</ele>
        <time>2015-03-08T13:17:06Z</time>
      </trkpt>
      <trkpt lat="48.54145" lon="1.93274">
        <ele>154</ele>
        <time>2015-03-08T13:17:39Z</time>
      </trkpt>
      <trkpt lat="48.54168" lon="1.93319">
        <ele>153</ele>
        <time>2015-03-08T13:18:12Z</time>
      </trkpt>
      <trkpt lat="48.54177" lon="1.93343">
        <ele>152</ele>
        <time>2015-03-08T13:18:25Z</time>
      </trkpt>
      <trkpt lat="48.54185" lon="1.93349">
        <ele>152</ele>
        <time>2015-03-08T13:18:33Z</time>
      </trkpt>
      <trkpt lat="48.54212" lon="1.9339">
        <ele>150</ele>
        <time>2015-03-08T13:19:05Z</time>
      </trkpt>
      <trkpt lat="48.54215" lon="1.93404">
        <ele>149</ele>
        <time>2015-03-08T13:19:12Z</time>
      </trkpt>
      <trkpt lat="48.54238" lon="1.93452">
        <ele>147</ele>
        <time>2015-03-08T13:19:43Z</time>
      </trkpt>
      <trkpt lat="48.54253" lon="1.93471">
        <ele>147</ele>
        <time>2015-03-08T13:20:01Z</time>
      </trkpt>
      <trkpt lat="48.54255" lon="1.93498">
        <ele>146</ele>
        <time>2015-03-08T13:20:08Z</time>
      </trkpt>
      <trkpt lat="48.5427" lon="1.93521">
        <ele>145</ele>
        <time>2015-03-08T13:20:30Z</time>
      </trkpt>
      <trkpt lat="48.54282" lon="1.93576">
        <ele>144</ele>
        <time>2015-03-08T13:21:01Z</time>
      </trkpt>
      <trkpt lat="48.54286" lon="1.93589">
        <ele>143</ele>
        <time>2015-03-08T13:21:09Z</time>
      </trkpt>
      <trkpt lat="48.54295" lon="1.93593">
        <ele>143</ele>
        <time>2015-03-08T13:21:20Z</time>
      </trkpt>
      <trkpt lat="48.54301" lon="1.93606">
        <ele>143</ele>
        <time>2015-03-08T13:21:26Z</time>
      </trkpt>
      <trkpt lat="48.54306" lon="1.93634">
        <ele>142</ele>
        <time>2015-03-08T13:21:40Z</time>
      </trkpt>
      <trkpt lat="48.54314" lon="1.93643">
        <ele>141</ele>
        <time>2015-03-08T13:21:50Z</time>
      </trkpt>
      <trkpt lat="48.54319" lon="1.93656">
        <ele>140</ele>
        <time>2015-03-08T13:22:02Z</time>
      </trkpt>
      <trkpt lat="48.54328" lon="1.93683">
        <ele>139</ele>
        <time>2015-03-08T13:22:16Z</time>
      </trkpt>
      <trkpt lat="48.54328" lon="1.93697">
        <ele>139</ele>
        <time>2015-03-08T13:22:20Z</time>
      </trkpt>
      <trkpt lat="48.54335" lon="1.93708">
        <ele>138</ele>
        <time>2015-03-08T13:22:26Z</time>
      </trkpt>
      <trkpt lat="48.54358" lon="1.93751">
        <ele>137</ele>
        <time>2015-03-08T13:22:59Z</time>
      </trkpt>
      <trkpt lat="48.54377" lon="1.93793">
        <ele>136</ele>
        <time>2015-03-08T13:23:39Z</time>
      </trkpt>
      <trkpt lat="48.54375" lon="1.93806">
        <ele>136</ele>
        <time>2015-03-08T13:23:44Z</time>
      </trkpt>
      <trkpt lat="48.54386" lon="1.9383">
        <ele>136</ele>
        <time>2015-03-08T13:23:58Z</time>
      </trkpt>
      <trkpt lat="48.54387" lon="1.93858">
        <ele>136</ele>
        <time>2015-03-08T13:24:13Z</time>
      </trkpt>
      <trkpt lat="48.54395" lon="1.93865">
        <ele>136</ele>
        <time>2015-03-08T13:24:20Z</time>
      </trkpt>
      <trkpt lat="48.544" lon="1.93878">
        <ele>136</ele>
        <time>2015-03-08T13:24:29Z</time>
      </trkpt>
      <trkpt lat="48.54425" lon="1.93899">
        <ele>138</ele>
        <time>2015-03-08T13:25:00Z</time>
      </trkpt>
      <trkpt lat="48.54443" lon="1.93948">
        <ele>140</ele>
        <time>2015-03-08T13:25:33Z</time>
      </trkpt>
      <trkpt lat="48.54453" lon="1.93948">
        <ele>140</ele>
        <time>2015-03-08T13:25:40Z</time>
      </trkpt>
      <trkpt lat="48.54462" lon="1.93957">
        <ele>141</ele>
        <time>2015-03-08T13:25:45Z</time>
      </trkpt>
      <trkpt lat="48.5447" lon="1.93949">
        <ele>141</ele>
        <time>2015-03-08T13:25:53Z</time>
      </trkpt>
      <trkpt lat="48.54479" lon="1.93944">
        <ele>144</ele>
        <time>2015-03-08T13:26:09Z</time>
      </trkpt>
      <trkpt lat="48.54488" lon="1.93942">
        <ele>145</ele>
        <time>2015-03-08T13:26:16Z</time>
      </trkpt>
      <trkpt lat="48.54497" lon="1.93945">
        <ele>146</ele>
        <time>2015-03-08T13:26:24Z</time>
      </trkpt>
      <trkpt lat="48.54505" lon="1.93953">
        <ele>147</ele>
        <time>2015-03-08T13:26:36Z</time>
      </trkpt>
      <trkpt lat="48.54526" lon="1.93979">
        <ele>150</ele>
        <time>2015-03-08T13:27:07Z</time>
      </trkpt>
      <trkpt lat="48.54535" lon="1.93987">
        <ele>151</ele>
        <time>2015-03-08T13:27:14Z</time>
      </trkpt>
      <trkpt lat="48.54542" lon="1.93993">
        <ele>152</ele>
        <time>2015-03-08T13:27:22Z</time>
      </trkpt>
      <trkpt lat="48.54546" lon="1.94008">
        <ele>154</ele>
        <time>2015-03-08T13:27:36Z</time>
      </trkpt>
      <trkpt lat="48.5455" lon="1.9402">
        <ele>159</ele>
        <time>2015-03-08T13:28:06Z</time>
      </trkpt>
      <trkpt lat="48.54558" lon="1.94026">
        <ele>160</ele>
        <time>2015-03-08T13:28:17Z</time>
      </trkpt>
      <trkpt lat="48.54559" lon="1.94039">
        <ele>162</ele>
        <time>2015-03-08T13:28:25Z</time>
      </trkpt>
      <trkpt lat="48.5456" lon="1.94067">
        <ele>165</ele>
        <time>2015-03-08T13:28:47Z</time>
      </trkpt>
      <trkpt lat="48.54565" lon="1.94078">
        <ele>166</ele>
        <time>2015-03-08T13:29:11Z</time>
      </trkpt>
      <trkpt lat="48.54572" lon="1.94073">
        <ele>166</ele>
        <time>2015-03-08T13:29:31Z</time>
      </trkpt>
      <trkpt lat="48.54575" lon="1.94083">
        <ele>166</ele>
        <time>2015-03-08T13:29:57Z</time>
      </trkpt>
      <trkpt lat="48.54573" lon="1.9408">
        <ele>167</ele>
        <time>2015-03-08T13:31:45Z</time>
      </trkpt>
      <trkpt lat="48.54562" lon="1.94085">
        <ele>166</ele>
        <time>2015-03-08T13:32:31Z</time>
      </trkpt>
      <trkpt lat="48.54526" lon="1.94129">
        <ele>167</ele>
        <time>2015-03-08T13:33:09Z</time>
      </trkpt>
      <trkpt lat="48.54489" lon="1.94173">
        <ele>166</ele>
        <time>2015-03-08T13:33:45Z</time>
      </trkpt>
      <trkpt lat="48.5448" lon="1.94171">
        <ele>166</ele>
        <time>2015-03-08T13:33:52Z</time>
      </trkpt>
      <trkpt lat="48.54471" lon="1.94175">
        <ele>166</ele>
        <time>2015-03-08T13:33:58Z</time>
      </trkpt>
      <trkpt lat="48.54442" lon="1.94213">
        <ele>165</ele>
        <time>2015-03-08T13:34:32Z</time>
      </trkpt>
      <trkpt lat="48.54433" lon="1.94218">
        <ele>165</ele>
        <time>2015-03-08T13:34:39Z</time>
      </trkpt>
      <trkpt lat="48.5442" lon="1.94238">
        <ele>164</ele>
        <time>2015-03-08T13:34:52Z</time>
      </trkpt>
      <trkpt lat="48.54407" lon="1.94277">
        <ele>164</ele>
        <time>2015-03-08T13:35:24Z</time>
      </trkpt>
      <trkpt lat="48.54398" lon="1.94298">
        <ele>164</ele>
        <time>2015-03-08T13:35:30Z</time>
      </trkpt>
      <trkpt lat="48.54403" lon="1.94311">
        <ele>164</ele>
        <time>2015-03-08T13:35:37Z</time>
      </trkpt>
      <trkpt lat="48.54397" lon="1.94322">
        <ele>163</ele>
        <time>2015-03-08T13:35:46Z</time>
      </trkpt>
      <trkpt lat="48.54394" lon="1.94335">
        <ele>163</ele>
        <time>2015-03-08T13:35:55Z</time>
      </trkpt>
      <trkpt lat="48.5441" lon="1.94389">
        <ele>163</ele>
        <time>2015-03-08T13:36:30Z</time>
      </trkpt>
      <trkpt lat="48.54423" lon="1.94428">
        <ele>163</ele>
        <time>2015-03-08T13:36:52Z</time>
      </trkpt>
      <trkpt lat="48.54423" lon="1.94442">
        <ele>163</ele>
        <time>2015-03-08T13:36:58Z</time>
      </trkpt>
      <trkpt lat="48.54429" lon="1.94462">
        <ele>162</ele>
        <time>2015-03-08T13:37:05Z</time>
      </trkpt>
      <trkpt lat="48.54438" lon="1.94473">
        <ele>162</ele>
        <time>2015-03-08T13:37:15Z</time>
      </trkpt>
      <trkpt lat="48.54442" lon="1.94486">
        <ele>162</ele>
        <time>2015-03-08T13:37:24Z</time>
      </trkpt>
      <trkpt lat="48.54442" lon="1.945">
        <ele>162</ele>
        <time>2015-03-08T13:37:30Z</time>
      </trkpt>
      <trkpt lat="48.54451" lon="1.945">
        <ele>162</ele>
        <time>2015-03-08T13:37:41Z</time>
      </trkpt>
      <trkpt lat="48.54457" lon="1.9451">
        <ele>162</ele>
        <time>2015-03-08T13:37:47Z</time>
      </trkpt>
      <trkpt lat="48.5447" lon="1.94529">
        <ele>162</ele>
        <time>2015-03-08T13:38:03Z</time>
      </trkpt>
      <trkpt lat="48.54468" lon="1.94544">
        <ele>162</ele>
        <time>2015-03-08T13:38:10Z</time>
      </trkpt>
      <trkpt lat="48.54472" lon="1.94588">
        <ele>162</ele>
        <time>2015-03-08T13:38:29Z</time>
      </trkpt>
      <trkpt lat="48.54478" lon="1.94598">
        <ele>161</ele>
        <time>2015-03-08T13:38:35Z</time>
      </trkpt>
      <trkpt lat="48.54487" lon="1.94604">
        <ele>161</ele>
        <time>2015-03-08T13:38:42Z</time>
      </trkpt>
      <trkpt lat="48.54488" lon="1.9462">
        <ele>161</ele>
        <time>2015-03-08T13:38:49Z</time>
      </trkpt>
      <trkpt lat="48.54488" lon="1.94648">
        <ele>161</ele>
        <time>2015-03-08T13:38:59Z</time>
      </trkpt>
      <trkpt lat="48.54496" lon="1.94657">
        <ele>161</ele>
        <time>2015-03-08T13:39:08Z</time>
      </trkpt>
      <trkpt lat="48.54507" lon="1.94662">
        <ele>161</ele>
        <time>2015-03-08T13:39:12Z</time>
      </trkpt>
      <trkpt lat="48.54504" lon="1.94677">
        <ele>161</ele>
        <time>2015-03-08T13:39:23Z</time>
      </trkpt>
      <trkpt lat="48.54519" lon="1.94726">
        <ele>161</ele>
        <time>2015-03-08T13:39:50Z</time>
      </trkpt>
      <trkpt lat="48.54515" lon="1.94741">
        <ele>161</ele>
        <time>2015-03-08T13:39:55Z</time>
      </trkpt>
      <trkpt lat="48.54527" lon="1.94738">
        <ele>161</ele>
        <time>2015-03-08T13:40:07Z</time>
      </trkpt>
      <trkpt lat="48.54533" lon="1.94742">
        <ele>161</ele>
        <time>2015-03-08T13:40:10Z</time>
      </trkpt>
      <trkpt lat="48.54538" lon="1.94752">
        <ele>161</ele>
        <time>2015-03-08T13:40:12Z</time>
      </trkpt>
      <trkpt lat="48.54554" lon="1.94765">
        <ele>161</ele>
        <time>2015-03-08T13:40:19Z</time>
      </trkpt>
      <trkpt lat="48.54559" lon="1.94775">
        <ele>161</ele>
        <time>2015-03-08T13:40:34Z</time>
      </trkpt>
      <trkpt lat="48.54569" lon="1.948">
        <ele>161</ele>
        <time>2015-03-08T13:40:50Z</time>
      </trkpt>
      <trkpt lat="48.54569" lon="1.94814">
        <ele>161</ele>
        <time>2015-03-08T13:40:53Z</time>
      </trkpt>
      <trkpt lat="48.5459" lon="1.94845">
        <ele>162</ele>
        <time>2015-03-08T13:41:15Z</time>
      </trkpt>
      <trkpt lat="48.54592" lon="1.94859">
        <ele>162</ele>
        <time>2015-03-08T13:41:22Z</time>
      </trkpt>
      <trkpt lat="48.546" lon="1.94865">
        <ele>162</ele>
        <time>2015-03-08T13:41:31Z</time>
      </trkpt>
      <trkpt lat="48.54609" lon="1.94866">
        <ele>162</ele>
        <time>2015-03-08T13:41:38Z</time>
      </trkpt>
      <trkpt lat="48.54617" lon="1.94859">
        <ele>162</ele>
        <time>2015-03-08T13:41:46Z</time>
      </trkpt>
      <trkpt lat="48.54619" lon="1.94876">
        <ele>162</ele>
        <time>2015-03-08T13:41:53Z</time>
      </trkpt>
      <trkpt lat="48.54627" lon="1.94892">
        <ele>162</ele>
        <time>2015-03-08T13:42:00Z</time>
      </trkpt>
      <trkpt lat="48.54635" lon="1.94895">
        <ele>162</ele>
        <time>2015-03-08T13:42:06Z</time>
      </trkpt>
      <trkpt lat="48.5464" lon="1.94902">
        <ele>162</ele>
        <time>2015-03-08T13:42:09Z</time>
      </trkpt>
      <trkpt lat="48.54645" lon="1.9493">
        <ele>162</ele>
        <time>2015-03-08T13:42:29Z</time>
      </trkpt>
      <trkpt lat="48.54652" lon="1.94938">
        <ele>163</ele>
        <time>2015-03-08T13:42:38Z</time>
      </trkpt>
      <trkpt lat="48.54669" lon="1.9495">
        <ele>163</ele>
        <time>2015-03-08T13:42:49Z</time>
      </trkpt>
      <trkpt lat="48.54669" lon="1.94968">
        <ele>162</ele>
        <time>2015-03-08T13:43:01Z</time>
      </trkpt>
      <trkpt lat="48.54664" lon="1.95038">
        <ele>161</ele>
        <time>2015-03-08T13:43:36Z</time>
      </trkpt>
      <trkpt lat="48.54653" lon="1.95103">
        <ele>160</ele>
        <time>2015-03-08T13:44:12Z</time>
      </trkpt>
      <trkpt lat="48.54659" lon="1.95124">
        <ele>159</ele>
        <time>2015-03-08T13:44:25Z</time>
      </trkpt>
      <trkpt lat="48.54667" lon="1.95118">
        <ele>159</ele>
        <time>2015-03-08T13:44:29Z</time>
      </trkpt>
      <trkpt lat="48.54673" lon="1.95122">
        <ele>159</ele>
        <time>2015-03-08T13:44:32Z</time>
      </trkpt>
      <trkpt lat="48.54685" lon="1.95146">
        <ele>158</ele>
        <time>2015-03-08T13:44:40Z</time>
      </trkpt>
      <trkpt lat="48.54648" lon="1.95191">
        <ele>158</ele>
        <time>2015-03-08T13:44:45Z</time>
      </trkpt>
      <trkpt lat="48.54645" lon="1.95201">
        <ele>158</ele>
        <time>2015-03-08T13:44:47Z</time>
      </trkpt>
      <trkpt lat="48.54654" lon="1.95207">
        <ele>157</ele>
        <time>2015-03-08T13:45:07Z</time>
      </trkpt>
      <trkpt lat="48.54659" lon="1.95213">
        <ele>157</ele>
        <time>2015-03-08T13:45:21Z</time>
      </trkpt>
      <trkpt lat="48.54666" lon="1.95211">
        <ele>156</ele>
        <time>2015-03-08T13:47:20Z</time>
      </trkpt>
      <trkpt lat="48.54669" lon="1.95205">
        <ele>156</ele>
        <time>2015-03-08T13:47:32Z</time>
      </trkpt>
      <trkpt lat="48.54659" lon="1.95199">
        <ele>156</ele>
        <time>2015-03-08T13:47:48Z</time>
      </trkpt>
      <trkpt lat="48.5465" lon="1.95205">
        <ele>157</ele>
        <time>2015-03-08T13:47:52Z</time>
      </trkpt>
      <trkpt lat="48.5464" lon="1.952">
        <ele>157</ele>
        <time>2015-03-08T13:47:57Z</time>
      </trkpt>
      <trkpt lat="48.54613" lon="1.95186">
        <ele>159</ele>
        <time>2015-03-08T13:48:17Z</time>
      </trkpt>
      <trkpt lat="48.54604" lon="1.95192">
        <ele>159</ele>
        <time>2015-03-08T13:48:24Z</time>
      </trkpt>
      <trkpt lat="48.54598" lon="1.95203">
        <ele>160</ele>
        <time>2015-03-08T13:48:31Z</time>
      </trkpt>
      <trkpt lat="48.54588" lon="1.95202">
        <ele>160</ele>
        <time>2015-03-08T13:48:40Z</time>
      </trkpt>
      <trkpt lat="48.54553" lon="1.95181">
        <ele>161</ele>
        <time>2015-03-08T13:49:12Z</time>
      </trkpt>
      <trkpt lat="48.54544" lon="1.95173">
        <ele>161</ele>
        <time>2015-03-08T13:49:17Z</time>
      </trkpt>
      <trkpt lat="48.54534" lon="1.95174">
        <ele>161</ele>
        <time>2015-03-08T13:49:24Z</time>
      </trkpt>
      <trkpt lat="48.54526" lon="1.95181">
        <ele>161</ele>
        <time>2015-03-08T13:49:32Z</time>
      </trkpt>
      <trkpt lat="48.54516" lon="1.9518">
        <ele>162</ele>
        <time>2015-03-08T13:49:40Z</time>
      </trkpt>
      <trkpt lat="48.54478" lon="1.95167">
        <ele>162</ele>
        <time>2015-03-08T13:50:11Z</time>
      </trkpt>
      <trkpt lat="48.54443" lon="1.95137">
        <ele>162</ele>
        <time>2015-03-08T13:50:41Z</time>
      </trkpt>
      <trkpt lat="48.54436" lon="1.95128">
        <ele>161</ele>
        <time>2015-03-08T13:50:48Z</time>
      </trkpt>
      <trkpt lat="48.54418" lon="1.95124">
        <ele>161</ele>
        <time>2015-03-08T13:51:04Z</time>
      </trkpt>
      <trkpt lat="48.54398" lon="1.95134">
        <ele>162</ele>
        <time>2015-03-08T13:51:16Z</time>
      </trkpt>
      <trkpt lat="48.54389" lon="1.9513">
        <ele>162</ele>
        <time>2015-03-08T13:51:22Z</time>
      </trkpt>
      <trkpt lat="48.5438" lon="1.95122">
        <ele>162</ele>
        <time>2015-03-08T13:51:27Z</time>
      </trkpt>
      <trkpt lat="48.5437" lon="1.95124">
        <ele>162</ele>
        <time>2015-03-08T13:51:35Z</time>
      </trkpt>
      <trkpt lat="48.54365" lon="1.95128">
        <ele>162</ele>
        <time>2015-03-08T13:51:37Z</time>
      </trkpt>
      <trkpt lat="48.54359" lon="1.95128">
        <ele>162</ele>
        <time>2015-03-08T13:51:40Z</time>
      </trkpt>
      <trkpt lat="48.54349" lon="1.95113">
        <ele>161</ele>
        <time>2015-03-08T13:51:44Z</time>
      </trkpt>
      <trkpt lat="48.54346" lon="1.95113">
        <ele>161</ele>
        <time>2015-03-08T13:52:06Z</time>
      </trkpt>
      <trkpt lat="48.54344" lon="1.95099">
        <ele>161</ele>
        <time>2015-03-08T13:52:14Z</time>
      </trkpt>
      <trkpt lat="48.54332" lon="1.95064">
        <ele>160</ele>
        <time>2015-03-08T13:52:31Z</time>
      </trkpt>
      <trkpt lat="48.54321" lon="1.95021">
        <ele>153</ele>
        <time>2015-03-08T13:53:04Z</time>
      </trkpt>
      <trkpt lat="48.54324" lon="1.94997">
        <ele>150</ele>
        <time>2015-03-08T13:53:13Z</time>
      </trkpt>
      <trkpt lat="48.5432" lon="1.94976">
        <ele>148</ele>
        <time>2015-03-08T13:53:24Z</time>
      </trkpt>
      <trkpt lat="48.5431" lon="1.94975">
        <ele>146</ele>
        <time>2015-03-08T13:53:30Z</time>
      </trkpt>
      <trkpt lat="48.54309" lon="1.94961">
        <ele>144</ele>
        <time>2015-03-08T13:53:42Z</time>
      </trkpt>
      <trkpt lat="48.54316" lon="1.94933">
        <ele>141</ele>
        <time>2015-03-08T13:53:56Z</time>
      </trkpt>
      <trkpt lat="48.5431" lon="1.94944">
        <ele>140</ele>
        <time>2015-03-08T13:54:04Z</time>
      </trkpt>
      <trkpt lat="48.54297" lon="1.94967">
        <ele>140</ele>
        <time>2015-03-08T13:54:14Z</time>
      </trkpt>
      <trkpt lat="48.5429" lon="1.94979">
        <ele>139</ele>
        <time>2015-03-08T13:54:21Z</time>
      </trkpt>
      <trkpt lat="48.54281" lon="1.94971">
        <ele>138</ele>
        <time>2015-03-08T13:54:28Z</time>
      </trkpt>
      <trkpt lat="48.54268" lon="1.94953">
        <ele>138</ele>
        <time>2015-03-08T13:54:41Z</time>
      </trkpt>
      <trkpt lat="48.54258" lon="1.94952">
        <ele>138</ele>
        <time>2015-03-08T13:54:48Z</time>
      </trkpt>
      <trkpt lat="48.54231" lon="1.94963">
        <ele>137</ele>
        <time>2015-03-08T13:55:10Z</time>
      </trkpt>
      <trkpt lat="48.54224" lon="1.94953">
        <ele>137</ele>
        <time>2015-03-08T13:55:16Z</time>
      </trkpt>
      <trkpt lat="48.54204" lon="1.94946">
        <ele>137</ele>
        <time>2015-03-08T13:55:31Z</time>
      </trkpt>
      <trkpt lat="48.54168" lon="1.9493">
        <ele>136</ele>
        <time>2015-03-08T13:56:01Z</time>
      </trkpt>
      <trkpt lat="48.54159" lon="1.9493">
        <ele>136</ele>
        <time>2015-03-08T13:56:10Z</time>
      </trkpt>
      <trkpt lat="48.5415" lon="1.94923">
        <ele>136</ele>
        <time>2015-03-08T13:56:17Z</time>
      </trkpt>
      <trkpt lat="48.54131" lon="1.94929">
        <ele>136</ele>
        <time>2015-03-08T13:56:29Z</time>
      </trkpt>
      <trkpt lat="48.54122" lon="1.94936">
        <ele>136</ele>
        <time>2015-03-08T13:56:39Z</time>
      </trkpt>
      <trkpt lat="48.54106" lon="1.94934">
        <ele>136</ele>
        <time>2015-03-08T13:56:49Z</time>
      </trkpt>
      <trkpt lat="48.54089" lon="1.94917">
        <ele>136</ele>
        <time>2015-03-08T13:56:59Z</time>
      </trkpt>
      <trkpt lat="48.54081" lon="1.94924">
        <ele>135</ele>
        <time>2015-03-08T13:57:14Z</time>
      </trkpt>
      <trkpt lat="48.54065" lon="1.9496">
        <ele>135</ele>
        <time>2015-03-08T13:57:30Z</time>
      </trkpt>
      <trkpt lat="48.54064" lon="1.94974">
        <ele>135</ele>
        <time>2015-03-08T13:57:40Z</time>
      </trkpt>
      <trkpt lat="48.5407" lon="1.94985">
        <ele>134</ele>
        <time>2015-03-08T13:57:52Z</time>
      </trkpt>
      <trkpt lat="48.54067" lon="1.95001">
        <ele>134</ele>
        <time>2015-03-08T13:57:56Z</time>
      </trkpt>
      <trkpt lat="48.54061" lon="1.95014">
        <ele>133</ele>
        <time>2015-03-08T13:58:05Z</time>
      </trkpt>
      <trkpt lat="48.5406" lon="1.95029">
        <ele>133</ele>
        <time>2015-03-08T13:58:14Z</time>
      </trkpt>
      <trkpt lat="48.54067" lon="1.95063">
        <ele>132</ele>
        <time>2015-03-08T13:58:39Z</time>
      </trkpt>
      <trkpt lat="48.54057" lon="1.95107">
        <ele>131</ele>
        <time>2015-03-08T13:58:54Z</time>
      </trkpt>
      <trkpt lat="48.54049" lon="1.95116">
        <ele>131</ele>
        <time>2015-03-08T13:58:59Z</time>
      </trkpt>
      <trkpt lat="48.54032" lon="1.95128">
        <ele>131</ele>
        <time>2015-03-08T13:59:21Z</time>
      </trkpt>
      <trkpt lat="48.54023" lon="1.95155">
        <ele>130</ele>
        <time>2015-03-08T13:59:42Z</time>
      </trkpt>
      <trkpt lat="48.53999" lon="1.95201">
        <ele>130</ele>
        <time>2015-03-08T14:00:17Z</time>
      </trkpt>
      <trkpt lat="48.53992" lon="1.95245">
        <ele>129</ele>
        <time>2015-03-08T14:00:39Z</time>
      </trkpt>
      <trkpt lat="48.53982" lon="1.95255">
        <ele>130</ele>
        <time>2015-03-08T14:00:46Z</time>
      </trkpt>
      <trkpt lat="48.53974" lon="1.95247">
        <ele>130</ele>
        <time>2015-03-08T14:00:52Z</time>
      </trkpt>
      <trkpt lat="48.5397" lon="1.95234">
        <ele>130</ele>
        <time>2015-03-08T14:00:57Z</time>
      </trkpt>
      <trkpt lat="48.5396" lon="1.95239">
        <ele>130</ele>
        <time>2015-03-08T14:01:05Z</time>
      </trkpt>
      <trkpt lat="48.53956" lon="1.95255">
        <ele>130</ele>
        <time>2015-03-08T14:01:10Z</time>
      </trkpt>
      <trkpt lat="48.53945" lon="1.95252">
        <ele>130</ele>
        <time>2015-03-08T14:01:20Z</time>
      </trkpt>
      <trkpt lat="48.53924" lon="1.95225">
        <ele>130</ele>
        <time>2015-03-08T14:01:42Z</time>
      </trkpt>
      <trkpt lat="48.53895" lon="1.95182">
        <ele>129</ele>
        <time>2015-03-08T14:02:10Z</time>
      </trkpt>
      <trkpt lat="48.53891" lon="1.95169">
        <ele>128</ele>
        <time>2015-03-08T14:02:18Z</time>
      </trkpt>
      <trkpt lat="48.53886" lon="1.95174">
        <ele>127</ele>
        <time>2015-03-08T14:02:44Z</time>
      </trkpt>
      <trkpt lat="48.53885" lon="1.95176">
        <ele>127</ele>
        <time>2015-03-08T14:03:12Z</time>
      </trkpt>
      <trkpt lat="48.53888" lon="1.95181">
        <ele>128</ele>
        <time>2015-03-08T14:04:29Z</time>
      </trkpt>
      <trkpt lat="48.53897" lon="1.95177">
        <ele>128</ele>
        <time>2015-03-08T14:04:35Z</time>
      </trkpt>
      <trkpt lat="48.53902" lon="1.95178">
        <ele>128</ele>
        <time>2015-03-08T14:04:46Z</time>
      </trkpt>
      <trkpt lat="48.53881" lon="1.95191">
        <ele>128</ele>
        <time>2015-03-08T14:05:04Z</time>
      </trkpt>
      <trkpt lat="48.53872" lon="1.95202">
        <ele>128</ele>
        <time>2015-03-08T14:05:25Z</time>
      </trkpt>
      <trkpt lat="48.53866" lon="1.95211">
        <ele>130</ele>
        <time>2015-03-08T14:05:42Z</time>
      </trkpt>
      <trkpt lat="48.53858" lon="1.95238">
        <ele>132</ele>
        <time>2015-03-08T14:06:03Z</time>
      </trkpt>
      <trkpt lat="48.5385" lon="1.95246">
        <ele>133</ele>
        <time>2015-03-08T14:06:14Z</time>
      </trkpt>
      <trkpt lat="48.53837" lon="1.953">
        <ele>138</ele>
        <time>2015-03-08T14:06:46Z</time>
      </trkpt>
      <trkpt lat="48.53836" lon="1.95331">
        <ele>139</ele>
        <time>2015-03-08T14:06:59Z</time>
      </trkpt>
      <trkpt lat="48.5384" lon="1.95344">
        <ele>140</ele>
        <time>2015-03-08T14:07:08Z</time>
      </trkpt>
      <trkpt lat="48.53841" lon="1.95371">
        <ele>141</ele>
        <time>2015-03-08T14:07:18Z</time>
      </trkpt>
      <trkpt lat="48.5385" lon="1.95374">
        <ele>141</ele>
        <time>2015-03-08T14:07:27Z</time>
      </trkpt>
      <trkpt lat="48.53868" lon="1.95383">
        <ele>143</ele>
        <time>2015-03-08T14:07:40Z</time>
      </trkpt>
      <trkpt lat="48.53865" lon="1.95397">
        <ele>143</ele>
        <time>2015-03-08T14:07:48Z</time>
      </trkpt>
      <trkpt lat="48.53857" lon="1.95408">
        <ele>145</ele>
        <time>2015-03-08T14:07:59Z</time>
      </trkpt>
      <trkpt lat="48.53848" lon="1.95412">
        <ele>145</ele>
        <time>2015-03-08T14:08:06Z</time>
      </trkpt>
      <trkpt lat="48.53829" lon="1.95408">
        <ele>147</ele>
        <time>2015-03-08T14:08:22Z</time>
      </trkpt>
      <trkpt lat="48.53824" lon="1.95419">
        <ele>147</ele>
        <time>2015-03-08T14:08:30Z</time>
      </trkpt>
      <trkpt lat="48.53816" lon="1.95429">
        <ele>148</ele>
        <time>2015-03-08T14:08:37Z</time>
      </trkpt>
      <trkpt lat="48.53807" lon="1.95425">
        <ele>148</ele>
        <time>2015-03-08T14:08:46Z</time>
      </trkpt>
      <trkpt lat="48.53798" lon="1.9543">
        <ele>148</ele>
        <time>2015-03-08T14:08:53Z</time>
      </trkpt>
      <trkpt lat="48.5377" lon="1.95468">
        <ele>149</ele>
        <time>2015-03-08T14:09:27Z</time>
      </trkpt>
      <trkpt lat="48.53739" lon="1.95524">
        <ele>150</ele>
        <time>2015-03-08T14:10:03Z</time>
      </trkpt>
      <trkpt lat="48.53728" lon="1.95561">
        <ele>148</ele>
        <time>2015-03-08T14:10:37Z</time>
      </trkpt>
      <trkpt lat="48.53718" lon="1.95625">
        <ele>148</ele>
        <time>2015-03-08T14:11:00Z</time>
      </trkpt>
      <trkpt lat="48.53724" lon="1.95655">
        <ele>147</ele>
        <time>2015-03-08T14:11:18Z</time>
      </trkpt>
      <trkpt lat="48.53721" lon="1.95671">
        <ele>147</ele>
        <time>2015-03-08T14:11:23Z</time>
      </trkpt>
      <trkpt lat="48.53724" lon="1.95684">
        <ele>147</ele>
        <time>2015-03-08T14:11:30Z</time>
      </trkpt>
      <trkpt lat="48.53735" lon="1.95684">
        <ele>148</ele>
        <time>2015-03-08T14:11:36Z</time>
      </trkpt>
      <trkpt lat="48.53745" lon="1.95684">
        <ele>149</ele>
        <time>2015-03-08T14:11:41Z</time>
      </trkpt>
      <trkpt lat="48.5375" lon="1.95695">
        <ele>150</ele>
        <time>2015-03-08T14:11:51Z</time>
      </trkpt>
      <trkpt lat="48.53764" lon="1.95692">
        <ele>152</ele>
        <time>2015-03-08T14:12:03Z</time>
      </trkpt>
      <trkpt lat="48.53783" lon="1.95689">
        <ele>154</ele>
        <time>2015-03-08T14:12:13Z</time>
      </trkpt>
      <trkpt lat="48.53791" lon="1.95681">
        <ele>155</ele>
        <time>2015-03-08T14:12:18Z</time>
      </trkpt>
      <trkpt lat="48.538" lon="1.95685">
        <ele>156</ele>
        <time>2015-03-08T14:12:28Z</time>
      </trkpt>
      <trkpt lat="48.53802" lon="1.95704">
        <ele>157</ele>
        <time>2015-03-08T14:12:38Z</time>
      </trkpt>
      <trkpt lat="48.53819" lon="1.95741">
        <ele>158</ele>
        <time>2015-03-08T14:13:00Z</time>
      </trkpt>
      <trkpt lat="48.53838" lon="1.95749">
        <ele>158</ele>
        <time>2015-03-08T14:13:14Z</time>
      </trkpt>
      <trkpt lat="48.53888" lon="1.95782">
        <ele>158</ele>
        <time>2015-03-08T14:13:56Z</time>
      </trkpt>
      <trkpt lat="48.53896" lon="1.95788">
        <ele>159</ele>
        <time>2015-03-08T14:14:03Z</time>
      </trkpt>
      <trkpt lat="48.53939" lon="1.95793">
        <ele>159</ele>
        <time>2015-03-08T14:14:34Z</time>
      </trkpt>
      <trkpt lat="48.5395" lon="1.95796">
        <ele>159</ele>
        <time>2015-03-08T14:14:42Z</time>
      </trkpt>
      <trkpt lat="48.53975" lon="1.95822">
        <ele>160</ele>
        <time>2015-03-08T14:15:04Z</time>
      </trkpt>
      <trkpt lat="48.53978" lon="1.95831">
        <ele>160</ele>
        <time>2015-03-08T14:15:08Z</time>
      </trkpt>
      <trkpt lat="48.5398" lon="1.95847">
        <ele>160</ele>
        <time>2015-03-08T14:15:12Z</time>
      </trkpt>
      <trkpt lat="48.53996" lon="1.95864">
        <ele>159</ele>
        <time>2015-03-08T14:15:27Z</time>
      </trkpt>
      <trkpt lat="48.5402" lon="1.95859">
        <ele>159</ele>
        <time>2015-03-08T14:15:40Z</time>
      </trkpt>
      <trkpt lat="48.54028" lon="1.95872">
        <ele>159</ele>
        <time>2015-03-08T14:15:58Z</time>
      </trkpt>
      <trkpt lat="48.54038" lon="1.95876">
        <ele>159</ele>
        <time>2015-03-08T14:16:07Z</time>
      </trkpt>
      <trkpt lat="48.54093" lon="1.95879">
        <ele>159</ele>
        <time>2015-03-08T14:16:42Z</time>
      </trkpt>
      <trkpt lat="48.54101" lon="1.95895">
        <ele>159</ele>
        <time>2015-03-08T14:16:48Z</time>
      </trkpt>
      <trkpt lat="48.54111" lon="1.95899">
        <ele>159</ele>
        <time>2015-03-08T14:16:54Z</time>
      </trkpt>
      <trkpt lat="48.54112" lon="1.95914">
        <ele>159</ele>
        <time>2015-03-08T14:17:02Z</time>
      </trkpt>
      <trkpt lat="48.54117" lon="1.95924">
        <ele>159</ele>
        <time>2015-03-08T14:17:10Z</time>
      </trkpt>
      <trkpt lat="48.54127" lon="1.95923">
        <ele>159</ele>
        <time>2015-03-08T14:17:14Z</time>
      </trkpt>
      <trkpt lat="48.54137" lon="1.95934">
        <ele>158</ele>
        <time>2015-03-08T14:17:30Z</time>
      </trkpt>
      <trkpt lat="48.54143" lon="1.95929">
        <ele>158</ele>
        <time>2015-03-08T14:17:41Z</time>
      </trkpt>
      <trkpt lat="48.54136" lon="1.9592">
        <ele>158</ele>
        <time>2015-03-08T14:18:00Z</time>
      </trkpt>
      <trkpt lat="48.54139" lon="1.95914">
        <ele>159</ele>
        <time>2015-03-08T14:18:12Z</time>
      </trkpt>
      <trkpt lat="48.54136" lon="1.95902">
        <ele>159</ele>
        <time>2015-03-08T14:19:08Z</time>
      </trkpt>
      <trkpt lat="48.54128" lon="1.9591">
        <ele>159</ele>
        <time>2015-03-08T14:19:25Z</time>
      </trkpt>
      <trkpt lat="48.54127" lon="1.95934">
        <ele>159</ele>
        <time>2015-03-08T14:20:33Z</time>
      </trkpt>
      <trkpt lat="48.54119" lon="1.95939">
        <ele>159</ele>
        <time>2015-03-08T14:20:42Z</time>
      </trkpt>
      <trkpt lat="48.5411" lon="1.95944">
        <ele>159</ele>
        <time>2015-03-08T14:20:50Z</time>
      </trkpt>
      <trkpt lat="48.54107" lon="1.95957">
        <ele>159</ele>
        <time>2015-03-08T14:21:03Z</time>
      </trkpt>
      <trkpt lat="48.5409" lon="1.95989">
        <ele>158</ele>
        <time>2015-03-08T14:21:30Z</time>
      </trkpt>
      <trkpt lat="48.54092" lon="1.95995">
        <ele>158</ele>
        <time>2015-03-08T14:21:43Z</time>
      </trkpt>
      <trkpt lat="48.54087" lon="1.96026">
        <ele>158</ele>
        <time>2015-03-08T14:22:04Z</time>
      </trkpt>
      <trkpt lat="48.54073" lon="1.96095">
        <ele>158</ele>
        <time>2015-03-08T14:22:38Z</time>
      </trkpt>
      <trkpt lat="48.54074" lon="1.96109">
        <ele>158</ele>
        <time>2015-03-08T14:22:46Z</time>
      </trkpt>
      <trkpt lat="48.54071" lon="1.96122">
        <ele>158</ele>
        <time>2015-03-08T14:22:50Z</time>
      </trkpt>
      <trkpt lat="48.54072" lon="1.96137">
        <ele>158</ele>
        <time>2015-03-08T14:22:57Z</time>
      </trkpt>
      <trkpt lat="48.54062" lon="1.96195">
        <ele>159</ele>
        <time>2015-03-08T14:23:28Z</time>
      </trkpt>
      <trkpt lat="48.54049" lon="1.96217">
        <ele>159</ele>
        <time>2015-03-08T14:23:41Z</time>
      </trkpt>
      <trkpt lat="48.54049" lon="1.96231">
        <ele>159</ele>
        <time>2015-03-08T14:23:48Z</time>
      </trkpt>
      <trkpt lat="48.54046" lon="1.96274">
        <ele>159</ele>
        <time>2015-03-08T14:24:21Z</time>
      </trkpt>
      <trkpt lat="48.54032" lon="1.9633">
        <ele>159</ele>
        <time>2015-03-08T14:24:45Z</time>
      </trkpt>
      <trkpt lat="48.54026" lon="1.96342">
        <ele>158</ele>
        <time>2015-03-08T14:25:00Z</time>
      </trkpt>
      <trkpt lat="48.53999" lon="1.96399">
        <ele>157</ele>
        <time>2015-03-08T14:25:30Z</time>
      </trkpt>
      <trkpt lat="48.53991" lon="1.96408">
        <ele>157</ele>
        <time>2015-03-08T14:25:37Z</time>
      </trkpt>
      <trkpt lat="48.53991" lon="1.96423">
        <ele>158</ele>
        <time>2015-03-08T14:25:45Z</time>
      </trkpt>
      <trkpt lat="48.53983" lon="1.96478">
        <ele>160</ele>
        <time>2015-03-08T14:26:14Z</time>
      </trkpt>
      <trkpt lat="48.53986" lon="1.96491">
        <ele>160</ele>
        <time>2015-03-08T14:26:25Z</time>
      </trkpt>
      <trkpt lat="48.53995" lon="1.96547">
        <ele>161</ele>
        <time>2015-03-08T14:26:58Z</time>
      </trkpt>
      <trkpt lat="48.53992" lon="1.9656">
        <ele>161</ele>
        <time>2015-03-08T14:27:08Z</time>
      </trkpt>
      <trkpt lat="48.53985" lon="1.96633">
        <ele>162</ele>
        <time>2015-03-08T14:27:38Z</time>
      </trkpt>
      <trkpt lat="48.53981" lon="1.96681">
        <ele>162</ele>
        <time>2015-03-08T14:28:01Z</time>
      </trkpt>
      <trkpt lat="48.53973" lon="1.9669">
        <ele>162</ele>
        <time>2015-03-08T14:28:07Z</time>
      </trkpt>
      <trkpt lat="48.53969" lon="1.96722">
        <ele>162</ele>
        <time>2015-03-08T14:28:21Z</time>
      </trkpt>
      <trkpt lat="48.53975" lon="1.96734">
        <ele>162</ele>
        <time>2015-03-08T14:28:29Z</time>
      </trkpt>
      <trkpt lat="48.53971" lon="1.96762">
        <ele>162</ele>
        <time>2015-03-08T14:28:46Z</time>
      </trkpt>
      <trkpt lat="48.53966" lon="1.96777">
        <ele>162</ele>
        <time>2015-03-08T14:28:53Z</time>
      </trkpt>
      <trkpt lat="48.53973" lon="1.96804">
        <ele>162</ele>
        <time>2015-03-08T14:29:11Z</time>
      </trkpt>
      <trkpt lat="48.53981" lon="1.96832">
        <ele>162</ele>
        <time>2015-03-08T14:29:30Z</time>
      </trkpt>
      <trkpt lat="48.53978" lon="1.9689">
        <ele>162</ele>
        <time>2015-03-08T14:29:58Z</time>
      </trkpt>
      <trkpt lat="48.53976" lon="1.96906">
        <ele>161</ele>
        <time>2015-03-08T14:31:54Z</time>
      </trkpt>
      <trkpt lat="48.53967" lon="1.96905">
        <ele>160</ele>
        <time>2015-03-08T14:31:59Z</time>
      </trkpt>
      <trkpt lat="48.53929" lon="1.96905">
        <ele>157</ele>
        <time>2015-03-08T14:32:35Z</time>
      </trkpt>
      <trkpt lat="48.53919" lon="1.96898">
        <ele>154</ele>
        <time>2015-03-08T14:32:50Z</time>
      </trkpt>
      <trkpt lat="48.53871" lon="1.96894">
        <ele>145</ele>
        <time>2015-03-08T14:33:25Z</time>
      </trkpt>
      <trkpt lat="48.53816" lon="1.96896">
        <ele>139</ele>
        <time>2015-03-08T14:34:02Z</time>
      </trkpt>
      <trkpt lat="48.53808" lon="1.96903">
        <ele>138</ele>
        <time>2015-03-08T14:34:10Z</time>
      </trkpt>
      <trkpt lat="48.53806" lon="1.9691">
        <ele>138</ele>
        <time>2015-03-08T14:34:23Z</time>
      </trkpt>
      <trkpt lat="48.53807" lon="1.96926">
        <ele>137</ele>
        <time>2015-03-08T14:34:34Z</time>
      </trkpt>
      <trkpt lat="48.53792" lon="1.96948">
        <ele>135</ele>
        <time>2015-03-08T14:34:45Z</time>
      </trkpt>
      <trkpt lat="48.53784" lon="1.96962">
        <ele>134</ele>
        <time>2015-03-08T14:34:55Z</time>
      </trkpt>
      <trkpt lat="48.53785" lon="1.96977">
        <ele>133</ele>
        <time>2015-03-08T14:35:00Z</time>
      </trkpt>
      <trkpt lat="48.53808" lon="1.96991">
        <ele>132</ele>
        <time>2015-03-08T14:35:21Z</time>
      </trkpt>
      <trkpt lat="48.53821" lon="1.97033">
        <ele>131</ele>
        <time>2015-03-08T14:35:38Z</time>
      </trkpt>
      <trkpt lat="48.53794" lon="1.97143">
        <ele>130</ele>
        <time>2015-03-08T14:36:10Z</time>
      </trkpt>
      <trkpt lat="48.53781" lon="1.97166">
        <ele>130</ele>
        <time>2015-03-08T14:36:24Z</time>
      </trkpt>
      <trkpt lat="48.53805" lon="1.97186">
        <ele>129</ele>
        <time>2015-03-08T14:36:52Z</time>
      </trkpt>
      <trkpt lat="48.53797" lon="1.97197">
        <ele>129</ele>
        <time>2015-03-08T14:36:58Z</time>
      </trkpt>
      <trkpt lat="48.53788" lon="1.97216">
        <ele>129</ele>
        <time>2015-03-08T14:37:04Z</time>
      </trkpt>
      <trkpt lat="48.53785" lon="1.97258">
        <ele>128</ele>
        <time>2015-03-08T14:37:26Z</time>
      </trkpt>
      <trkpt lat="48.53788" lon="1.97283">
        <ele>128</ele>
        <time>2015-03-08T14:37:40Z</time>
      </trkpt>
      <trkpt lat="48.53778" lon="1.97298">
        <ele>127</ele>
        <time>2015-03-08T14:37:47Z</time>
      </trkpt>
      <trkpt lat="48.53766" lon="1.97304">
        <ele>127</ele>
        <time>2015-03-08T14:37:51Z</time>
      </trkpt>
      <trkpt lat="48.53753" lon="1.97326">
        <ele>127</ele>
        <time>2015-03-08T14:37:58Z</time>
      </trkpt>
      <trkpt lat="48.53763" lon="1.97327">
        <ele>127</ele>
        <time>2015-03-08T14:38:07Z</time>
      </trkpt>
      <trkpt lat="48.53771" lon="1.97335">
        <ele>127</ele>
        <time>2015-03-08T14:38:10Z</time>
      </trkpt>
      <trkpt lat="48.53773" lon="1.97348">
        <ele>126</ele>
        <time>2015-03-08T14:38:19Z</time>
      </trkpt>
      <trkpt lat="48.53764" lon="1.97356">
        <ele>126</ele>
        <time>2015-03-08T14:38:23Z</time>
      </trkpt>
      <trkpt lat="48.53749" lon="1.97369">
        <ele>125</ele>
        <time>2015-03-08T14:38:35Z</time>
      </trkpt>
      <trkpt lat="48.53745" lon="1.97383">
        <ele>125</ele>
        <time>2015-03-08T14:38:40Z</time>
      </trkpt>
      <trkpt lat="48.53737" lon="1.97391">
        <ele>125</ele>
        <time>2015-03-08T14:38:49Z</time>
      </trkpt>
      <trkpt lat="48.53727" lon="1.97395">
        <ele>124</ele>
        <time>2015-03-08T14:38:55Z</time>
      </trkpt>
      <trkpt lat="48.5372" lon="1.97408">
        <ele>124</ele>
        <time>2015-03-08T14:39:09Z</time>
      </trkpt>
      <trkpt lat="48.53689" lon="1.97459">
        <ele>123</ele>
        <time>2015-03-08T14:39:40Z</time>
      </trkpt>
      <trkpt lat="48.53684" lon="1.97472">
        <ele>123</ele>
        <time>2015-03-08T14:39:46Z</time>
      </trkpt>
      <trkpt lat="48.53685" lon="1.97486">
        <ele>122</ele>
        <time>2015-03-08T14:39:53Z</time>
      </trkpt>
      <trkpt lat="48.53678" lon="1.97495">
        <ele>122</ele>
        <time>2015-03-08T14:40:08Z</time>
      </trkpt>
      <trkpt lat="48.53658" lon="1.97502">
        <ele>122</ele>
        <time>2015-03-08T14:40:17Z</time>
      </trkpt>
      <trkpt lat="48.53658" lon="1.97517">
        <ele>122</ele>
        <time>2015-03-08T14:40:24Z</time>
      </trkpt>
      <trkpt lat="48.53655" lon="1.97532">
        <ele>121</ele>
        <time>2015-03-08T14:40:32Z</time>
      </trkpt>
      <trkpt lat="48.53656" lon="1.97546">
        <ele>121</ele>
        <time>2015-03-08T14:40:39Z</time>
      </trkpt>
      <trkpt lat="48.53648" lon="1.97561">
        <ele>121</ele>
        <time>2015-03-08T14:40:48Z</time>
      </trkpt>
      <trkpt lat="48.53638" lon="1.97563">
        <ele>121</ele>
        <time>2015-03-08T14:40:52Z</time>
      </trkpt>
      <trkpt lat="48.53631" lon="1.97574">
        <ele>121</ele>
        <time>2015-03-08T14:40:58Z</time>
      </trkpt>
      <trkpt lat="48.53619" lon="1.97596">
        <ele>120</ele>
        <time>2015-03-08T14:41:11Z</time>
      </trkpt>
      <trkpt lat="48.53617" lon="1.97611">
        <ele>120</ele>
        <time>2015-03-08T14:41:18Z</time>
      </trkpt>
      <trkpt lat="48.53602" lon="1.97643">
        <ele>120</ele>
        <time>2015-03-08T14:41:42Z</time>
      </trkpt>
      <trkpt lat="48.53555" lon="1.97674">
        <ele>119</ele>
        <time>2015-03-08T14:42:24Z</time>
      </trkpt>
      <trkpt lat="48.53545" lon="1.97678">
        <ele>119</ele>
        <time>2015-03-08T14:42:32Z</time>
      </trkpt>
      <trkpt lat="48.53537" lon="1.97689">
        <ele>119</ele>
        <time>2015-03-08T14:42:37Z</time>
      </trkpt>
      <trkpt lat="48.53535" lon="1.97696">
        <ele>119</ele>
        <time>2015-03-08T14:42:41Z</time>
      </trkpt>
      <trkpt lat="48.53527" lon="1.97703">
        <ele>119</ele>
        <time>2015-03-08T14:42:44Z</time>
      </trkpt>
      <trkpt lat="48.53518" lon="1.97709">
        <ele>119</ele>
        <time>2015-03-08T14:42:48Z</time>
      </trkpt>
      <trkpt lat="48.53514" lon="1.97725">
        <ele>119</ele>
        <time>2015-03-08T14:42:56Z</time>
      </trkpt>
      <trkpt lat="48.53515" lon="1.9774">
        <ele>118</ele>
        <time>2015-03-08T14:43:13Z</time>
      </trkpt>
      <trkpt lat="48.53512" lon="1.97754">
        <ele>118</ele>
        <time>2015-03-08T14:43:19Z</time>
      </trkpt>
      <trkpt lat="48.53494" lon="1.97767">
        <ele>118</ele>
        <time>2015-03-08T14:43:30Z</time>
      </trkpt>
      <trkpt lat="48.53491" lon="1.97781">
        <ele>117</ele>
        <time>2015-03-08T14:43:39Z</time>
      </trkpt>
      <trkpt lat="48.53468" lon="1.97783">
        <ele>117</ele>
        <time>2015-03-08T14:43:41Z</time>
      </trkpt>
      <trkpt lat="48.53464" lon="1.97795">
        <ele>117</ele>
        <time>2015-03-08T14:43:51Z</time>
      </trkpt>
      <trkpt lat="48.53452" lon="1.978">
        <ele>117</ele>
        <time>2015-03-08T14:43:56Z</time>
      </trkpt>
      <trkpt lat="48.53459" lon="1.97811">
        <ele>116</ele>
        <time>2015-03-08T14:44:05Z</time>
      </trkpt>
      <trkpt lat="48.53453" lon="1.97822">
        <ele>116</ele>
        <time>2015-03-08T14:44:11Z</time>
      </trkpt>
      <trkpt lat="48.53435" lon="1.97875">
        <ele>116</ele>
        <time>2015-03-08T14:44:45Z</time>
      </trkpt>
      <trkpt lat="48.53428" lon="1.9792">
        <ele>115</ele>
        <time>2015-03-08T14:45:05Z</time>
      </trkpt>
      <trkpt lat="48.53433" lon="1.97936">
        <ele>115</ele>
        <time>2015-03-08T14:45:38Z</time>
      </trkpt>
      <trkpt lat="48.53441" lon="1.97924">
        <ele>115</ele>
        <time>2015-03-08T14:45:55Z</time>
      </trkpt>
      <trkpt lat="48.53442" lon="1.9792">
        <ele>115</ele>
        <time>2015-03-08T14:47:01Z</time>
      </trkpt>
      <trkpt lat="48.53386" lon="1.97949">
        <ele>115</ele>
        <time>2015-03-08T14:47:32Z</time>
      </trkpt>
      <trkpt lat="48.53385" lon="1.97963">
        <ele>115</ele>
        <time>2015-03-08T14:47:41Z</time>
      </trkpt>
      <trkpt lat="48.5338" lon="1.97975">
        <ele>116</ele>
        <time>2015-03-08T14:47:50Z</time>
      </trkpt>
      <trkpt lat="48.5336" lon="1.97984">
        <ele>116</ele>
        <time>2015-03-08T14:48:00Z</time>
      </trkpt>
      <trkpt lat="48.53361" lon="1.97985">
        <ele>117</ele>
        <time>2015-03-08T14:48:23Z</time>
      </trkpt>
      <trkpt lat="48.5336" lon="1.97969">
        <ele>117</ele>
        <time>2015-03-08T14:48:33Z</time>
      </trkpt>
      <trkpt lat="48.5335" lon="1.9791">
        <ele>116</ele>
        <time>2015-03-08T14:49:03Z</time>
      </trkpt>
      <trkpt lat="48.53345" lon="1.97881">
        <ele>116</ele>
        <time>2015-03-08T14:49:15Z</time>
      </trkpt>
      <trkpt lat="48.53349" lon="1.97869">
        <ele>115</ele>
        <time>2015-03-08T14:49:24Z</time>
      </trkpt>
      <trkpt lat="48.53348" lon="1.97855">
        <ele>115</ele>
        <time>2015-03-08T14:49:31Z</time>
      </trkpt>
      <trkpt lat="48.53337" lon="1.9785">
        <ele>115</ele>
        <time>2015-03-08T14:49:36Z</time>
      </trkpt>
      <trkpt lat="48.53332" lon="1.97836">
        <ele>115</ele>
        <time>2015-03-08T14:49:45Z</time>
      </trkpt>
      <trkpt lat="48.53313" lon="1.97817">
        <ele>115</ele>
        <time>2015-03-08T14:49:56Z</time>
      </trkpt>
      <trkpt lat="48.53311" lon="1.97802">
        <ele>115</ele>
        <time>2015-03-08T14:50:01Z</time>
      </trkpt>
      <trkpt lat="48.53305" lon="1.97792">
        <ele>115</ele>
        <time>2015-03-08T14:50:06Z</time>
      </trkpt>
      <trkpt lat="48.53308" lon="1.97778">
        <ele>115</ele>
        <time>2015-03-08T14:50:13Z</time>
      </trkpt>
      <trkpt lat="48.53303" lon="1.9775">
        <ele>115</ele>
        <time>2015-03-08T14:50:31Z</time>
      </trkpt>
      <trkpt lat="48.53286" lon="1.97699">
        <ele>116</ele>
        <time>2015-03-08T14:51:06Z</time>
      </trkpt>
      <trkpt lat="48.53263" lon="1.97635">
        <ele>117</ele>
        <time>2015-03-08T14:51:41Z</time>
      </trkpt>
      <trkpt lat="48.53238" lon="1.97582">
        <ele>118</ele>
        <time>2015-03-08T14:52:15Z</time>
      </trkpt>
      <trkpt lat="48.53231" lon="1.97572">
        <ele>118</ele>
        <time>2015-03-08T14:52:21Z</time>
      </trkpt>
      <trkpt lat="48.53217" lon="1.9752">
        <ele>119</ele>
        <time>2015-03-08T14:52:55Z</time>
      </trkpt>
      <trkpt lat="48.53211" lon="1.97508">
        <ele>120</ele>
        <time>2015-03-08T14:53:02Z</time>
      </trkpt>
      <trkpt lat="48.53212" lon="1.97493">
        <ele>120</ele>
        <time>2015-03-08T14:53:13Z</time>
      </trkpt>
      <trkpt lat="48.53206" lon="1.97482">
        <ele>120</ele>
        <time>2015-03-08T14:53:23Z</time>
      </trkpt>
      <trkpt lat="48.53197" lon="1.97473">
        <ele>121</ele>
        <time>2015-03-08T14:53:29Z</time>
      </trkpt>
      <trkpt lat="48.53195" lon="1.97458">
        <ele>121</ele>
        <time>2015-03-08T14:53:36Z</time>
      </trkpt>
      <trkpt lat="48.53196" lon="1.97444">
        <ele>121</ele>
        <time>2015-03-08T14:53:44Z</time>
      </trkpt>
      <trkpt lat="48.53186" lon="1.97419">
        <ele>121</ele>
        <time>2015-03-08T14:53:59Z</time>
      </trkpt>
      <trkpt lat="48.5318" lon="1.97409">
        <ele>122</ele>
        <time>2015-03-08T14:54:05Z</time>
      </trkpt>
      <trkpt lat="48.53179" lon="1.97381">
        <ele>122</ele>
        <time>2015-03-08T14:54:28Z</time>
      </trkpt>
      <trkpt lat="48.53158" lon="1.97349">
        <ele>123</ele>
        <time>2015-03-08T14:54:44Z</time>
      </trkpt>
      <trkpt lat="48.53159" lon="1.97349">
        <ele>123</ele>
        <time>2015-03-08T14:55:15Z</time>
      </trkpt>
      <trkpt lat="48.5316" lon="1.97349">
        <ele>123</ele>
        <time>2015-03-08T14:55:36Z</time>
      </trkpt>
      <trkpt lat="48.53151" lon="1.97336">
        <ele>123</ele>
        <time>2015-03-08T14:55:48Z</time>
      </trkpt>
      <trkpt lat="48.53141" lon="1.97339">
        <ele>124</ele>
        <time>2015-03-08T14:55:58Z</time>
      </trkpt>
      <trkpt lat="48.53143" lon="1.97324">
        <ele>124</ele>
        <time>2015-03-08T14:56:12Z</time>
      </trkpt>
      <trkpt lat="48.5313" lon="1.97268">
        <ele>124</ele>
        <time>2015-03-08T14:56:44Z</time>
      </trkpt>
      <trkpt lat="48.53115" lon="1.97247">
        <ele>124</ele>
        <time>2015-03-08T14:56:56Z</time>
      </trkpt>
      <trkpt lat="48.53107" lon="1.9724">
        <ele>124</ele>
        <time>2015-03-08T14:57:01Z</time>
      </trkpt>
      <trkpt lat="48.53096" lon="1.97215">
        <ele>123</ele>
        <time>2015-03-08T14:57:18Z</time>
      </trkpt>
      <trkpt lat="48.53086" lon="1.97209">
        <ele>123</ele>
        <time>2015-03-08T14:57:24Z</time>
      </trkpt>
      <trkpt lat="48.53074" lon="1.97186">
        <ele>123</ele>
        <time>2015-03-08T14:57:36Z</time>
      </trkpt>
      <trkpt lat="48.5307" lon="1.97173">
        <ele>123</ele>
        <time>2015-03-08T14:57:43Z</time>
      </trkpt>
      <trkpt lat="48.53062" lon="1.97164">
        <ele>123</ele>
        <time>2015-03-08T14:57:50Z</time>
      </trkpt>
      <trkpt lat="48.53048" lon="1.97119">
        <ele>123</ele>
        <time>2015-03-08T14:58:24Z</time>
      </trkpt>
      <trkpt lat="48.53032" lon="1.971">
        <ele>123</ele>
        <time>2015-03-08T14:58:39Z</time>
      </trkpt>
      <trkpt lat="48.53032" lon="1.97085">
        <ele>124</ele>
        <time>2015-03-08T14:58:46Z</time>
      </trkpt>
      <trkpt lat="48.53042" lon="1.97045">
        <ele>125</ele>
        <time>2015-03-08T14:59:13Z</time>
      </trkpt>
      <trkpt lat="48.53037" lon="1.97018">
        <ele>127</ele>
        <time>2015-03-08T14:59:27Z</time>
      </trkpt>
      <trkpt lat="48.53032" lon="1.97006">
        <ele>127</ele>
        <time>2015-03-08T14:59:34Z</time>
      </trkpt>
      <trkpt lat="48.53032" lon="1.9699">
        <ele>128</ele>
        <time>2015-03-08T14:59:41Z</time>
      </trkpt>
      <trkpt lat="48.53038" lon="1.96969">
        <ele>128</ele>
        <time>2015-03-08T15:00:04Z</time>
      </trkpt>
      <trkpt lat="48.53036" lon="1.96954">
        <ele>128</ele>
        <time>2015-03-08T15:00:11Z</time>
      </trkpt>
      <trkpt lat="48.53041" lon="1.96942">
        <ele>128</ele>
        <time>2015-03-08T15:00:16Z</time>
      </trkpt>
      <trkpt lat="48.53076" lon="1.96892">
        <ele>127</ele>
        <time>2015-03-08T15:00:50Z</time>
      </trkpt>
      <trkpt lat="48.53103" lon="1.96845">
        <ele>127</ele>
        <time>2015-03-08T15:01:19Z</time>
      </trkpt>
      <trkpt lat="48.53102" lon="1.96833">
        <ele>127</ele>
        <time>2015-03-08T15:01:24Z</time>
      </trkpt>
      <trkpt lat="48.53111" lon="1.96787">
        <ele>123</ele>
        <time>2015-03-08T15:02:00Z</time>
      </trkpt>
      <trkpt lat="48.53111" lon="1.96772">
        <ele>123</ele>
        <time>2015-03-08T15:02:08Z</time>
      </trkpt>
      <trkpt lat="48.53117" lon="1.96743">
        <ele>121</ele>
        <time>2015-03-08T15:02:22Z</time>
      </trkpt>
      <trkpt lat="48.53112" lon="1.9673">
        <ele>120</ele>
        <time>2015-03-08T15:02:30Z</time>
      </trkpt>
      <trkpt lat="48.53081" lon="1.96674">
        <ele>117</ele>
        <time>2015-03-08T15:03:07Z</time>
      </trkpt>
      <trkpt lat="48.53082" lon="1.96657">
        <ele>116</ele>
        <time>2015-03-08T15:03:16Z</time>
      </trkpt>
      <trkpt lat="48.53084" lon="1.96643">
        <ele>116</ele>
        <time>2015-03-08T15:03:24Z</time>
      </trkpt>
      <trkpt lat="48.53075" lon="1.96617">
        <ele>115</ele>
        <time>2015-03-08T15:03:36Z</time>
      </trkpt>
      <trkpt lat="48.53076" lon="1.96603">
        <ele>115</ele>
        <time>2015-03-08T15:03:42Z</time>
      </trkpt>
      <trkpt lat="48.53072" lon="1.96589">
        <ele>115</ele>
        <time>2015-03-08T15:03:51Z</time>
      </trkpt>
      <trkpt lat="48.53073" lon="1.96575">
        <ele>114</ele>
        <time>2015-03-08T15:03:58Z</time>
      </trkpt>
      <trkpt lat="48.53065" lon="1.96549">
        <ele>113</ele>
        <time>2015-03-08T15:04:13Z</time>
      </trkpt>
      <trkpt lat="48.53068" lon="1.96521">
        <ele>113</ele>
        <time>2015-03-08T15:04:26Z</time>
      </trkpt>
      <trkpt lat="48.53062" lon="1.96479">
        <ele>111</ele>
        <time>2015-03-08T15:04:55Z</time>
      </trkpt>
      <trkpt lat="48.53056" lon="1.96469">
        <ele>111</ele>
        <time>2015-03-08T15:05:03Z</time>
      </trkpt>
      <trkpt lat="48.53031" lon="1.96448">
        <ele>110</ele>
        <time>2015-03-08T15:05:25Z</time>
      </trkpt>
      <trkpt lat="48.53031" lon="1.96433">
        <ele>110</ele>
        <time>2015-03-08T15:05:31Z</time>
      </trkpt>
      <trkpt lat="48.53032" lon="1.96418">
        <ele>110</ele>
        <time>2015-03-08T15:05:39Z</time>
      </trkpt>
      <trkpt lat="48.53029" lon="1.9639">
        <ele>109</ele>
        <time>2015-03-08T15:05:52Z</time>
      </trkpt>
      <trkpt lat="48.53035" lon="1.96379">
        <ele>109</ele>
        <time>2015-03-08T15:06:00Z</time>
      </trkpt>
      <trkpt lat="48.53037" lon="1.96365">
        <ele>109</ele>
        <time>2015-03-08T15:06:07Z</time>
      </trkpt>
      <trkpt lat="48.53035" lon="1.96351">
        <ele>109</ele>
        <time>2015-03-08T15:06:15Z</time>
      </trkpt>
      <trkpt lat="48.5304" lon="1.9634">
        <ele>109</ele>
        <time>2015-03-08T15:06:20Z</time>
      </trkpt>
      <trkpt lat="48.53054" lon="1.96316">
        <ele>108</ele>
        <time>2015-03-08T15:06:33Z</time>
      </trkpt>
      <trkpt lat="48.53056" lon="1.96272">
        <ele>109</ele>
        <time>2015-03-08T15:06:59Z</time>
      </trkpt>
      <trkpt lat="48.53062" lon="1.9626">
        <ele>109</ele>
        <time>2015-03-08T15:07:06Z</time>
      </trkpt>
      <trkpt lat="48.53072" lon="1.96259">
        <ele>109</ele>
        <time>2015-03-08T15:07:13Z</time>
      </trkpt>
      <trkpt lat="48.53081" lon="1.96261">
        <ele>109</ele>
        <time>2015-03-08T15:07:24Z</time>
      </trkpt>
      <trkpt lat="48.53093" lon="1.96267">
        <ele>110</ele>
        <time>2015-03-08T15:07:41Z</time>
      </trkpt>
      <trkpt lat="48.53106" lon="1.96246">
        <ele>110</ele>
        <time>2015-03-08T15:07:54Z</time>
      </trkpt>
      <trkpt lat="48.53102" lon="1.96218">
        <ele>110</ele>
        <time>2015-03-08T15:08:14Z</time>
      </trkpt>
      <trkpt lat="48.53107" lon="1.96205">
        <ele>110</ele>
        <time>2015-03-08T15:08:19Z</time>
      </trkpt>
      <trkpt lat="48.53115" lon="1.96198">
        <ele>111</ele>
        <time>2015-03-08T15:08:29Z</time>
      </trkpt>
      <trkpt lat="48.53112" lon="1.96185">
        <ele>111</ele>
        <time>2015-03-08T15:08:37Z</time>
      </trkpt>
    </trkseg>
  </trk>
</gpx>